<?xml version="1.0" encoding="UTF-8" standalone="no" ?>
<gpx xmlns="http://www.topografix.com/GPX/1/1" xmlns:xsi="http://www.w3.org/2001/XMLSchema-instance" xsi:schemaLocation="http://www.topografix.com/GPX/1/1 http://www.topografix.com/GPX/1/1/gpx.xsd" version="1.1" creator="VisuGPX - https://www.visugpx.com">
  <metadata>
    <name>Du chemin des Oiseaux au Coteau</name>
  </metadata>
  <trk>
    <name><![CDATA[Du chemin des Oiseaux au Coteau]]></name>
    <extensions>
      <line xmlns="http://www.topografix.com/GPX/gpx_style/0/2">
        <color>0000FF</color>
        <width>4</width>
      </line>
    </extensions>
    <trkseg>
      <trkpt lat="46.95244" lon="-0.88864">
        <ele>192.787</ele>
        <time>2021-11-24T08:59:18Z</time>
      </trkpt>
      <trkpt lat="46.95245" lon="-0.88866">
        <ele>192.551</ele>
        <time>2021-11-24T08:59:23Z</time>
      </trkpt>
      <trkpt lat="46.95251" lon="-0.88871">
        <ele>191.898</ele>
        <time>2021-11-24T08:59:28Z</time>
      </trkpt>
      <trkpt lat="46.95255" lon="-0.88878">
        <ele>191.297</ele>
        <time>2021-11-24T08:59:33Z</time>
      </trkpt>
      <trkpt lat="46.9526" lon="-0.88885">
        <ele>190.585</ele>
        <time>2021-11-24T08:59:39Z</time>
      </trkpt>
      <trkpt lat="46.95266" lon="-0.88891">
        <ele>189.948</ele>
        <time>2021-11-24T08:59:45Z</time>
      </trkpt>
      <trkpt lat="46.95271" lon="-0.88896">
        <ele>189.085</ele>
        <time>2021-11-24T08:59:50Z</time>
      </trkpt>
      <trkpt lat="46.95278" lon="-0.889">
        <ele>192.274</ele>
        <time>2021-11-24T08:59:55Z</time>
      </trkpt>
      <trkpt lat="46.95286" lon="-0.88905">
        <ele>190.692</ele>
        <time>2021-11-24T09:00:01Z</time>
      </trkpt>
      <trkpt lat="46.95293" lon="-0.88909">
        <ele>189.832</ele>
        <time>2021-11-24T09:00:06Z</time>
      </trkpt>
      <trkpt lat="46.95301" lon="-0.88913">
        <ele>189.444</ele>
        <time>2021-11-24T09:00:12Z</time>
      </trkpt>
      <trkpt lat="46.95297" lon="-0.88924">
        <ele>188.833</ele>
        <time>2021-11-24T09:00:17Z</time>
      </trkpt>
      <trkpt lat="46.95293" lon="-0.88937">
        <ele>188.073</ele>
        <time>2021-11-24T09:00:23Z</time>
      </trkpt>
      <trkpt lat="46.9529" lon="-0.88949">
        <ele>187.593</ele>
        <time>2021-11-24T09:00:28Z</time>
      </trkpt>
      <trkpt lat="46.95288" lon="-0.88958">
        <ele>187.305</ele>
        <time>2021-11-24T09:00:33Z</time>
      </trkpt>
      <trkpt lat="46.95285" lon="-0.88969">
        <ele>187.03</ele>
        <time>2021-11-24T09:00:38Z</time>
      </trkpt>
      <trkpt lat="46.95281" lon="-0.88977">
        <ele>186.725</ele>
        <time>2021-11-24T09:00:44Z</time>
      </trkpt>
      <trkpt lat="46.95278" lon="-0.88987">
        <ele>186.677</ele>
        <time>2021-11-24T09:00:50Z</time>
      </trkpt>
      <trkpt lat="46.95276" lon="-0.88994">
        <ele>186.567</ele>
        <time>2021-11-24T09:00:55Z</time>
      </trkpt>
      <trkpt lat="46.95274" lon="-0.89002">
        <ele>186.296</ele>
        <time>2021-11-24T09:01:00Z</time>
      </trkpt>
      <trkpt lat="46.9527" lon="-0.89013">
        <ele>185.661</ele>
        <time>2021-11-24T09:01:06Z</time>
      </trkpt>
      <trkpt lat="46.95273" lon="-0.8902">
        <ele>186.105</ele>
        <time>2021-11-24T09:01:11Z</time>
      </trkpt>
      <trkpt lat="46.95281" lon="-0.8902">
        <ele>186.099</ele>
        <time>2021-11-24T09:01:16Z</time>
      </trkpt>
      <trkpt lat="46.95284" lon="-0.89026">
        <ele>186.257</ele>
        <time>2021-11-24T09:01:22Z</time>
      </trkpt>
      <trkpt lat="46.95287" lon="-0.8903">
        <ele>186.096</ele>
        <time>2021-11-24T09:01:27Z</time>
      </trkpt>
      <trkpt lat="46.95289" lon="-0.89031">
        <ele>186.287</ele>
        <time>2021-11-24T09:01:33Z</time>
      </trkpt>
      <trkpt lat="46.95289" lon="-0.8903">
        <ele>186.399</ele>
        <time>2021-11-24T09:01:43Z</time>
      </trkpt>
      <trkpt lat="46.9529" lon="-0.89029">
        <ele>186.449</ele>
        <time>2021-11-24T09:01:49Z</time>
      </trkpt>
      <trkpt lat="46.9529" lon="-0.8903">
        <ele>186.655</ele>
        <time>2021-11-24T09:01:54Z</time>
      </trkpt>
      <trkpt lat="46.95291" lon="-0.8903">
        <ele>187.057</ele>
        <time>2021-11-24T09:02:05Z</time>
      </trkpt>
      <trkpt lat="46.95291" lon="-0.89029">
        <ele>186.894</ele>
        <time>2021-11-24T09:02:16Z</time>
      </trkpt>
      <trkpt lat="46.95297" lon="-0.89035">
        <ele>186.563</ele>
        <time>2021-11-24T09:02:22Z</time>
      </trkpt>
      <trkpt lat="46.95303" lon="-0.89029">
        <ele>186.514</ele>
        <time>2021-11-24T09:02:28Z</time>
      </trkpt>
      <trkpt lat="46.95309" lon="-0.89021">
        <ele>185.668</ele>
        <time>2021-11-24T09:02:34Z</time>
      </trkpt>
      <trkpt lat="46.95316" lon="-0.89015">
        <ele>185.458</ele>
        <time>2021-11-24T09:02:40Z</time>
      </trkpt>
      <trkpt lat="46.95321" lon="-0.89009">
        <ele>185.599</ele>
        <time>2021-11-24T09:02:46Z</time>
      </trkpt>
      <trkpt lat="46.95326" lon="-0.89004">
        <ele>185.569</ele>
        <time>2021-11-24T09:02:51Z</time>
      </trkpt>
      <trkpt lat="46.95331" lon="-0.88997">
        <ele>186.43</ele>
        <time>2021-11-24T09:02:56Z</time>
      </trkpt>
      <trkpt lat="46.95339" lon="-0.88988">
        <ele>185.272</ele>
        <time>2021-11-24T09:03:02Z</time>
      </trkpt>
      <trkpt lat="46.95346" lon="-0.88981">
        <ele>184.978</ele>
        <time>2021-11-24T09:03:08Z</time>
      </trkpt>
      <trkpt lat="46.95353" lon="-0.88978">
        <ele>184.703</ele>
        <time>2021-11-24T09:03:13Z</time>
      </trkpt>
      <trkpt lat="46.95359" lon="-0.88975">
        <ele>184.357</ele>
        <time>2021-11-24T09:03:18Z</time>
      </trkpt>
      <trkpt lat="46.95367" lon="-0.88971">
        <ele>184.35</ele>
        <time>2021-11-24T09:03:24Z</time>
      </trkpt>
      <trkpt lat="46.95375" lon="-0.88967">
        <ele>185.052</ele>
        <time>2021-11-24T09:03:29Z</time>
      </trkpt>
      <trkpt lat="46.95382" lon="-0.88963">
        <ele>185.438</ele>
        <time>2021-11-24T09:03:34Z</time>
      </trkpt>
      <trkpt lat="46.95389" lon="-0.88959">
        <ele>186.266</ele>
        <time>2021-11-24T09:03:39Z</time>
      </trkpt>
      <trkpt lat="46.95395" lon="-0.88957">
        <ele>185.982</ele>
        <time>2021-11-24T09:03:44Z</time>
      </trkpt>
      <trkpt lat="46.95402" lon="-0.88958">
        <ele>186.119</ele>
        <time>2021-11-24T09:03:50Z</time>
      </trkpt>
      <trkpt lat="46.95408" lon="-0.88966">
        <ele>187.726</ele>
        <time>2021-11-24T09:03:56Z</time>
      </trkpt>
      <trkpt lat="46.95408" lon="-0.88976">
        <ele>188.421</ele>
        <time>2021-11-24T09:04:01Z</time>
      </trkpt>
      <trkpt lat="46.95404" lon="-0.88987">
        <ele>188.65</ele>
        <time>2021-11-24T09:04:07Z</time>
      </trkpt>
      <trkpt lat="46.95397" lon="-0.88994">
        <ele>189.359</ele>
        <time>2021-11-24T09:04:13Z</time>
      </trkpt>
      <trkpt lat="46.95391" lon="-0.88998">
        <ele>189.816</ele>
        <time>2021-11-24T09:04:18Z</time>
      </trkpt>
      <trkpt lat="46.95388" lon="-0.89005">
        <ele>190.41</ele>
        <time>2021-11-24T09:04:24Z</time>
      </trkpt>
      <trkpt lat="46.95394" lon="-0.89011">
        <ele>191.03</ele>
        <time>2021-11-24T09:04:30Z</time>
      </trkpt>
      <trkpt lat="46.95402" lon="-0.89004">
        <ele>191.28</ele>
        <time>2021-11-24T09:04:36Z</time>
      </trkpt>
      <trkpt lat="46.95409" lon="-0.88997">
        <ele>191.072</ele>
        <time>2021-11-24T09:04:42Z</time>
      </trkpt>
      <trkpt lat="46.95414" lon="-0.88992">
        <ele>190.358</ele>
        <time>2021-11-24T09:04:47Z</time>
      </trkpt>
      <trkpt lat="46.9542" lon="-0.88987">
        <ele>190.182</ele>
        <time>2021-11-24T09:04:52Z</time>
      </trkpt>
      <trkpt lat="46.95426" lon="-0.88981">
        <ele>189.588</ele>
        <time>2021-11-24T09:04:57Z</time>
      </trkpt>
      <trkpt lat="46.95433" lon="-0.88972">
        <ele>187.296</ele>
        <time>2021-11-24T09:05:03Z</time>
      </trkpt>
      <trkpt lat="46.95439" lon="-0.88964">
        <ele>183.951</ele>
        <time>2021-11-24T09:05:08Z</time>
      </trkpt>
      <trkpt lat="46.95443" lon="-0.88959">
        <ele>185.539</ele>
        <time>2021-11-24T09:05:14Z</time>
      </trkpt>
      <trkpt lat="46.95447" lon="-0.88955">
        <ele>186.589</ele>
        <time>2021-11-24T09:05:20Z</time>
      </trkpt>
      <trkpt lat="46.9545" lon="-0.88953">
        <ele>186.521</ele>
        <time>2021-11-24T09:05:25Z</time>
      </trkpt>
      <trkpt lat="46.95459" lon="-0.88959">
        <ele>180.902</ele>
        <time>2021-11-24T09:05:31Z</time>
      </trkpt>
      <trkpt lat="46.95466" lon="-0.88963">
        <ele>182.539</ele>
        <time>2021-11-24T09:05:36Z</time>
      </trkpt>
      <trkpt lat="46.95474" lon="-0.88968">
        <ele>183.104</ele>
        <time>2021-11-24T09:05:42Z</time>
      </trkpt>
      <trkpt lat="46.95481" lon="-0.88971">
        <ele>184.389</ele>
        <time>2021-11-24T09:05:47Z</time>
      </trkpt>
      <trkpt lat="46.95488" lon="-0.88978">
        <ele>185.204</ele>
        <time>2021-11-24T09:05:53Z</time>
      </trkpt>
      <trkpt lat="46.95494" lon="-0.88986">
        <ele>185.151</ele>
        <time>2021-11-24T09:05:59Z</time>
      </trkpt>
      <trkpt lat="46.955" lon="-0.88992">
        <ele>185.056</ele>
        <time>2021-11-24T09:06:04Z</time>
      </trkpt>
      <trkpt lat="46.95505" lon="-0.88999">
        <ele>185.45</ele>
        <time>2021-11-24T09:06:10Z</time>
      </trkpt>
      <trkpt lat="46.95512" lon="-0.89008">
        <ele>185.497</ele>
        <time>2021-11-24T09:06:16Z</time>
      </trkpt>
      <trkpt lat="46.95516" lon="-0.89017">
        <ele>186.747</ele>
        <time>2021-11-24T09:06:21Z</time>
      </trkpt>
      <trkpt lat="46.95522" lon="-0.89026">
        <ele>186.465</ele>
        <time>2021-11-24T09:06:27Z</time>
      </trkpt>
      <trkpt lat="46.95529" lon="-0.89033">
        <ele>186.116</ele>
        <time>2021-11-24T09:06:33Z</time>
      </trkpt>
      <trkpt lat="46.95536" lon="-0.8904">
        <ele>186.417</ele>
        <time>2021-11-24T09:06:39Z</time>
      </trkpt>
      <trkpt lat="46.95543" lon="-0.89047">
        <ele>185.721</ele>
        <time>2021-11-24T09:06:45Z</time>
      </trkpt>
      <trkpt lat="46.95548" lon="-0.89052">
        <ele>185.179</ele>
        <time>2021-11-24T09:06:50Z</time>
      </trkpt>
      <trkpt lat="46.95554" lon="-0.89059">
        <ele>184.718</ele>
        <time>2021-11-24T09:06:56Z</time>
      </trkpt>
      <trkpt lat="46.9556" lon="-0.89063">
        <ele>184.328</ele>
        <time>2021-11-24T09:07:01Z</time>
      </trkpt>
      <trkpt lat="46.95565" lon="-0.89068">
        <ele>183.645</ele>
        <time>2021-11-24T09:07:06Z</time>
      </trkpt>
      <trkpt lat="46.95571" lon="-0.89074">
        <ele>182.946</ele>
        <time>2021-11-24T09:07:12Z</time>
      </trkpt>
      <trkpt lat="46.95578" lon="-0.89079">
        <ele>182.493</ele>
        <time>2021-11-24T09:07:18Z</time>
      </trkpt>
      <trkpt lat="46.95584" lon="-0.89081">
        <ele>182.609</ele>
        <time>2021-11-24T09:07:23Z</time>
      </trkpt>
      <trkpt lat="46.95591" lon="-0.89081">
        <ele>182.347</ele>
        <time>2021-11-24T09:07:28Z</time>
      </trkpt>
      <trkpt lat="46.95599" lon="-0.89083">
        <ele>182.192</ele>
        <time>2021-11-24T09:07:34Z</time>
      </trkpt>
      <trkpt lat="46.95607" lon="-0.89083">
        <ele>181.618</ele>
        <time>2021-11-24T09:07:39Z</time>
      </trkpt>
      <trkpt lat="46.95612" lon="-0.89076">
        <ele>180.779</ele>
        <time>2021-11-24T09:07:45Z</time>
      </trkpt>
      <trkpt lat="46.95617" lon="-0.89067">
        <ele>177.828</ele>
        <time>2021-11-24T09:07:51Z</time>
      </trkpt>
      <trkpt lat="46.95623" lon="-0.89059">
        <ele>177.423</ele>
        <time>2021-11-24T09:07:56Z</time>
      </trkpt>
      <trkpt lat="46.9563" lon="-0.89048">
        <ele>177.029</ele>
        <time>2021-11-24T09:08:02Z</time>
      </trkpt>
      <trkpt lat="46.95636" lon="-0.89039">
        <ele>177.471</ele>
        <time>2021-11-24T09:08:08Z</time>
      </trkpt>
      <trkpt lat="46.9564" lon="-0.89033">
        <ele>176.396</ele>
        <time>2021-11-24T09:08:13Z</time>
      </trkpt>
      <trkpt lat="46.95648" lon="-0.89025">
        <ele>175.738</ele>
        <time>2021-11-24T09:08:19Z</time>
      </trkpt>
      <trkpt lat="46.95653" lon="-0.89015">
        <ele>175.098</ele>
        <time>2021-11-24T09:08:25Z</time>
      </trkpt>
      <trkpt lat="46.95657" lon="-0.89006">
        <ele>174.5</ele>
        <time>2021-11-24T09:08:30Z</time>
      </trkpt>
      <trkpt lat="46.95662" lon="-0.88999">
        <ele>173.378</ele>
        <time>2021-11-24T09:08:36Z</time>
      </trkpt>
      <trkpt lat="46.95666" lon="-0.88993">
        <ele>173.127</ele>
        <time>2021-11-24T09:08:41Z</time>
      </trkpt>
      <trkpt lat="46.95671" lon="-0.88984">
        <ele>171.752</ele>
        <time>2021-11-24T09:08:46Z</time>
      </trkpt>
      <trkpt lat="46.95676" lon="-0.88974">
        <ele>171.317</ele>
        <time>2021-11-24T09:08:52Z</time>
      </trkpt>
      <trkpt lat="46.95682" lon="-0.88961">
        <ele>170.829</ele>
        <time>2021-11-24T09:08:58Z</time>
      </trkpt>
      <trkpt lat="46.95687" lon="-0.88953">
        <ele>170.542</ele>
        <time>2021-11-24T09:09:04Z</time>
      </trkpt>
      <trkpt lat="46.95692" lon="-0.88946">
        <ele>170.339</ele>
        <time>2021-11-24T09:09:09Z</time>
      </trkpt>
      <trkpt lat="46.95694" lon="-0.88941">
        <ele>170.117</ele>
        <time>2021-11-24T09:09:14Z</time>
      </trkpt>
      <trkpt lat="46.9569" lon="-0.88931">
        <ele>169.244</ele>
        <time>2021-11-24T09:09:20Z</time>
      </trkpt>
      <trkpt lat="46.95683" lon="-0.88921">
        <ele>168.305</ele>
        <time>2021-11-24T09:09:26Z</time>
      </trkpt>
      <trkpt lat="46.95686" lon="-0.8891">
        <ele>168.176</ele>
        <time>2021-11-24T09:09:31Z</time>
      </trkpt>
      <trkpt lat="46.95694" lon="-0.88901">
        <ele>167.554</ele>
        <time>2021-11-24T09:09:37Z</time>
      </trkpt>
      <trkpt lat="46.95701" lon="-0.88895">
        <ele>166.698</ele>
        <time>2021-11-24T09:09:42Z</time>
      </trkpt>
      <trkpt lat="46.95709" lon="-0.88892">
        <ele>166.697</ele>
        <time>2021-11-24T09:09:48Z</time>
      </trkpt>
      <trkpt lat="46.95716" lon="-0.88887">
        <ele>166.051</ele>
        <time>2021-11-24T09:09:54Z</time>
      </trkpt>
      <trkpt lat="46.95721" lon="-0.88881">
        <ele>165.402</ele>
        <time>2021-11-24T09:09:59Z</time>
      </trkpt>
      <trkpt lat="46.95727" lon="-0.88874">
        <ele>165.568</ele>
        <time>2021-11-24T09:10:05Z</time>
      </trkpt>
      <trkpt lat="46.95735" lon="-0.88866">
        <ele>166.08</ele>
        <time>2021-11-24T09:10:11Z</time>
      </trkpt>
      <trkpt lat="46.95739" lon="-0.88859">
        <ele>165.391</ele>
        <time>2021-11-24T09:10:16Z</time>
      </trkpt>
      <trkpt lat="46.95747" lon="-0.88851">
        <ele>164.223</ele>
        <time>2021-11-24T09:10:22Z</time>
      </trkpt>
      <trkpt lat="46.95754" lon="-0.88843">
        <ele>164.198</ele>
        <time>2021-11-24T09:10:28Z</time>
      </trkpt>
      <trkpt lat="46.9576" lon="-0.88836">
        <ele>163.507</ele>
        <time>2021-11-24T09:10:33Z</time>
      </trkpt>
      <trkpt lat="46.95763" lon="-0.88824">
        <ele>162.868</ele>
        <time>2021-11-24T09:10:39Z</time>
      </trkpt>
      <trkpt lat="46.95765" lon="-0.88814">
        <ele>163.138</ele>
        <time>2021-11-24T09:10:45Z</time>
      </trkpt>
      <trkpt lat="46.9577" lon="-0.88806">
        <ele>162.696</ele>
        <time>2021-11-24T09:10:50Z</time>
      </trkpt>
      <trkpt lat="46.9578" lon="-0.88808">
        <ele>162.437</ele>
        <time>2021-11-24T09:10:56Z</time>
      </trkpt>
      <trkpt lat="46.95788" lon="-0.88812">
        <ele>162.019</ele>
        <time>2021-11-24T09:11:02Z</time>
      </trkpt>
      <trkpt lat="46.95797" lon="-0.88817">
        <ele>161.428</ele>
        <time>2021-11-24T09:11:08Z</time>
      </trkpt>
      <trkpt lat="46.95804" lon="-0.88821">
        <ele>161.962</ele>
        <time>2021-11-24T09:11:13Z</time>
      </trkpt>
      <trkpt lat="46.95813" lon="-0.88824">
        <ele>161.885</ele>
        <time>2021-11-24T09:11:19Z</time>
      </trkpt>
      <trkpt lat="46.95821" lon="-0.88822">
        <ele>162.108</ele>
        <time>2021-11-24T09:11:24Z</time>
      </trkpt>
      <trkpt lat="46.95828" lon="-0.88817">
        <ele>160.991</ele>
        <time>2021-11-24T09:11:30Z</time>
      </trkpt>
      <trkpt lat="46.95831" lon="-0.88805">
        <ele>161.092</ele>
        <time>2021-11-24T09:11:36Z</time>
      </trkpt>
      <trkpt lat="46.95832" lon="-0.88795">
        <ele>160.919</ele>
        <time>2021-11-24T09:11:41Z</time>
      </trkpt>
      <trkpt lat="46.95835" lon="-0.88782">
        <ele>160.007</ele>
        <time>2021-11-24T09:11:47Z</time>
      </trkpt>
      <trkpt lat="46.95838" lon="-0.88772">
        <ele>161.259</ele>
        <time>2021-11-24T09:11:52Z</time>
      </trkpt>
      <trkpt lat="46.95844" lon="-0.88763">
        <ele>161.198</ele>
        <time>2021-11-24T09:11:58Z</time>
      </trkpt>
      <trkpt lat="46.9585" lon="-0.88758">
        <ele>158.673</ele>
        <time>2021-11-24T09:12:03Z</time>
      </trkpt>
      <trkpt lat="46.95855" lon="-0.88748">
        <ele>159.656</ele>
        <time>2021-11-24T09:12:09Z</time>
      </trkpt>
      <trkpt lat="46.95858" lon="-0.88733">
        <ele>162.676</ele>
        <time>2021-11-24T09:12:15Z</time>
      </trkpt>
      <trkpt lat="46.95861" lon="-0.88721">
        <ele>161.678</ele>
        <time>2021-11-24T09:12:21Z</time>
      </trkpt>
      <trkpt lat="46.95862" lon="-0.88711">
        <ele>161.466</ele>
        <time>2021-11-24T09:12:26Z</time>
      </trkpt>
      <trkpt lat="46.95864" lon="-0.88697">
        <ele>161.355</ele>
        <time>2021-11-24T09:12:32Z</time>
      </trkpt>
      <trkpt lat="46.95867" lon="-0.88688">
        <ele>161.404</ele>
        <time>2021-11-24T09:12:37Z</time>
      </trkpt>
      <trkpt lat="46.95872" lon="-0.8868">
        <ele>161.532</ele>
        <time>2021-11-24T09:12:43Z</time>
      </trkpt>
      <trkpt lat="46.95876" lon="-0.88674">
        <ele>162.073</ele>
        <time>2021-11-24T09:12:48Z</time>
      </trkpt>
      <trkpt lat="46.95878" lon="-0.88664">
        <ele>161.436</ele>
        <time>2021-11-24T09:12:54Z</time>
      </trkpt>
      <trkpt lat="46.9588" lon="-0.88653">
        <ele>161.972</ele>
        <time>2021-11-24T09:13:00Z</time>
      </trkpt>
      <trkpt lat="46.95886" lon="-0.88648">
        <ele>161.659</ele>
        <time>2021-11-24T09:13:05Z</time>
      </trkpt>
      <trkpt lat="46.95892" lon="-0.88641">
        <ele>161.457</ele>
        <time>2021-11-24T09:13:11Z</time>
      </trkpt>
      <trkpt lat="46.95896" lon="-0.88635">
        <ele>161.461</ele>
        <time>2021-11-24T09:13:16Z</time>
      </trkpt>
      <trkpt lat="46.95902" lon="-0.88629">
        <ele>162.013</ele>
        <time>2021-11-24T09:13:21Z</time>
      </trkpt>
      <trkpt lat="46.95911" lon="-0.88623">
        <ele>161.684</ele>
        <time>2021-11-24T09:13:27Z</time>
      </trkpt>
      <trkpt lat="46.95919" lon="-0.88616">
        <ele>161.713</ele>
        <time>2021-11-24T09:13:33Z</time>
      </trkpt>
      <trkpt lat="46.95925" lon="-0.8861">
        <ele>161.906</ele>
        <time>2021-11-24T09:13:38Z</time>
      </trkpt>
      <trkpt lat="46.95931" lon="-0.88604">
        <ele>161.495</ele>
        <time>2021-11-24T09:13:44Z</time>
      </trkpt>
      <trkpt lat="46.9594" lon="-0.88604">
        <ele>161.679</ele>
        <time>2021-11-24T09:13:49Z</time>
      </trkpt>
      <trkpt lat="46.95952" lon="-0.88606">
        <ele>160.922</ele>
        <time>2021-11-24T09:13:55Z</time>
      </trkpt>
      <trkpt lat="46.95958" lon="-0.8861">
        <ele>160.713</ele>
        <time>2021-11-24T09:14:01Z</time>
      </trkpt>
      <trkpt lat="46.95966" lon="-0.88614">
        <ele>161.187</ele>
        <time>2021-11-24T09:14:06Z</time>
      </trkpt>
      <trkpt lat="46.95975" lon="-0.88617">
        <ele>161.004</ele>
        <time>2021-11-24T09:14:11Z</time>
      </trkpt>
      <trkpt lat="46.95984" lon="-0.88624">
        <ele>161.375</ele>
        <time>2021-11-24T09:14:17Z</time>
      </trkpt>
      <trkpt lat="46.95988" lon="-0.88632">
        <ele>161.13</ele>
        <time>2021-11-24T09:14:22Z</time>
      </trkpt>
      <trkpt lat="46.95993" lon="-0.88641">
        <ele>161.588</ele>
        <time>2021-11-24T09:14:27Z</time>
      </trkpt>
      <trkpt lat="46.95998" lon="-0.88649">
        <ele>161.072</ele>
        <time>2021-11-24T09:14:32Z</time>
      </trkpt>
      <trkpt lat="46.96002" lon="-0.88657">
        <ele>161.335</ele>
        <time>2021-11-24T09:14:37Z</time>
      </trkpt>
      <trkpt lat="46.96006" lon="-0.88668">
        <ele>161.513</ele>
        <time>2021-11-24T09:14:43Z</time>
      </trkpt>
      <trkpt lat="46.9601" lon="-0.88681">
        <ele>161.704</ele>
        <time>2021-11-24T09:14:49Z</time>
      </trkpt>
      <trkpt lat="46.96015" lon="-0.88689">
        <ele>161.564</ele>
        <time>2021-11-24T09:14:55Z</time>
      </trkpt>
      <trkpt lat="46.9602" lon="-0.88696">
        <ele>161.244</ele>
        <time>2021-11-24T09:15:00Z</time>
      </trkpt>
      <trkpt lat="46.96028" lon="-0.88697">
        <ele>161.678</ele>
        <time>2021-11-24T09:15:06Z</time>
      </trkpt>
      <trkpt lat="46.96037" lon="-0.88692">
        <ele>160.803</ele>
        <time>2021-11-24T09:15:12Z</time>
      </trkpt>
      <trkpt lat="46.96042" lon="-0.88679">
        <ele>161.161</ele>
        <time>2021-11-24T09:15:18Z</time>
      </trkpt>
      <trkpt lat="46.96046" lon="-0.88666">
        <ele>161.232</ele>
        <time>2021-11-24T09:15:24Z</time>
      </trkpt>
      <trkpt lat="46.96046" lon="-0.88656">
        <ele>161.08</ele>
        <time>2021-11-24T09:15:29Z</time>
      </trkpt>
      <trkpt lat="46.96049" lon="-0.88644">
        <ele>162.467</ele>
        <time>2021-11-24T09:15:35Z</time>
      </trkpt>
      <trkpt lat="46.96053" lon="-0.88635">
        <ele>162.416</ele>
        <time>2021-11-24T09:15:41Z</time>
      </trkpt>
      <trkpt lat="46.96058" lon="-0.88624">
        <ele>162.024</ele>
        <time>2021-11-24T09:15:47Z</time>
      </trkpt>
      <trkpt lat="46.96064" lon="-0.88613">
        <ele>161.995</ele>
        <time>2021-11-24T09:15:53Z</time>
      </trkpt>
      <trkpt lat="46.96069" lon="-0.88603">
        <ele>162.44</ele>
        <time>2021-11-24T09:15:59Z</time>
      </trkpt>
      <trkpt lat="46.96075" lon="-0.88597">
        <ele>162.237</ele>
        <time>2021-11-24T09:16:04Z</time>
      </trkpt>
      <trkpt lat="46.96083" lon="-0.88589">
        <ele>162.119</ele>
        <time>2021-11-24T09:16:10Z</time>
      </trkpt>
      <trkpt lat="46.96084" lon="-0.8858">
        <ele>162.306</ele>
        <time>2021-11-24T09:16:16Z</time>
      </trkpt>
      <trkpt lat="46.9608" lon="-0.88567">
        <ele>162.026</ele>
        <time>2021-11-24T09:16:22Z</time>
      </trkpt>
      <trkpt lat="46.96077" lon="-0.88559">
        <ele>162.672</ele>
        <time>2021-11-24T09:16:27Z</time>
      </trkpt>
      <trkpt lat="46.96072" lon="-0.88547">
        <ele>161.959</ele>
        <time>2021-11-24T09:16:33Z</time>
      </trkpt>
      <trkpt lat="46.96068" lon="-0.88536">
        <ele>161.25</ele>
        <time>2021-11-24T09:16:39Z</time>
      </trkpt>
      <trkpt lat="46.96065" lon="-0.88527">
        <ele>161.688</ele>
        <time>2021-11-24T09:16:44Z</time>
      </trkpt>
      <trkpt lat="46.9606" lon="-0.88516">
        <ele>162.115</ele>
        <time>2021-11-24T09:16:50Z</time>
      </trkpt>
      <trkpt lat="46.96056" lon="-0.88503">
        <ele>162.561</ele>
        <time>2021-11-24T09:16:56Z</time>
      </trkpt>
      <trkpt lat="46.96053" lon="-0.88496">
        <ele>162.725</ele>
        <time>2021-11-24T09:17:01Z</time>
      </trkpt>
      <trkpt lat="46.9605" lon="-0.88484">
        <ele>162.471</ele>
        <time>2021-11-24T09:17:07Z</time>
      </trkpt>
      <trkpt lat="46.96048" lon="-0.8847">
        <ele>162.09</ele>
        <time>2021-11-24T09:17:13Z</time>
      </trkpt>
      <trkpt lat="46.96045" lon="-0.8846">
        <ele>162.888</ele>
        <time>2021-11-24T09:17:18Z</time>
      </trkpt>
      <trkpt lat="46.96042" lon="-0.88448">
        <ele>162.301</ele>
        <time>2021-11-24T09:17:24Z</time>
      </trkpt>
      <trkpt lat="46.96039" lon="-0.88436">
        <ele>162.947</ele>
        <time>2021-11-24T09:17:29Z</time>
      </trkpt>
      <trkpt lat="46.96035" lon="-0.88427">
        <ele>162.236</ele>
        <time>2021-11-24T09:17:35Z</time>
      </trkpt>
      <trkpt lat="46.96031" lon="-0.88418">
        <ele>162.272</ele>
        <time>2021-11-24T09:17:41Z</time>
      </trkpt>
      <trkpt lat="46.96028" lon="-0.88411">
        <ele>162.213</ele>
        <time>2021-11-24T09:17:46Z</time>
      </trkpt>
      <trkpt lat="46.96022" lon="-0.88401">
        <ele>163.233</ele>
        <time>2021-11-24T09:17:52Z</time>
      </trkpt>
      <trkpt lat="46.96016" lon="-0.88391">
        <ele>162.813</ele>
        <time>2021-11-24T09:17:58Z</time>
      </trkpt>
      <trkpt lat="46.96011" lon="-0.88382">
        <ele>162.826</ele>
        <time>2021-11-24T09:18:03Z</time>
      </trkpt>
      <trkpt lat="46.96006" lon="-0.88374">
        <ele>163.349</ele>
        <time>2021-11-24T09:18:09Z</time>
      </trkpt>
      <trkpt lat="46.96002" lon="-0.88366">
        <ele>163.484</ele>
        <time>2021-11-24T09:18:14Z</time>
      </trkpt>
      <trkpt lat="46.95996" lon="-0.88356">
        <ele>164.445</ele>
        <time>2021-11-24T09:18:19Z</time>
      </trkpt>
      <trkpt lat="46.9599" lon="-0.88345">
        <ele>163.872</ele>
        <time>2021-11-24T09:18:25Z</time>
      </trkpt>
      <trkpt lat="46.95985" lon="-0.88333">
        <ele>164.322</ele>
        <time>2021-11-24T09:18:31Z</time>
      </trkpt>
      <trkpt lat="46.95981" lon="-0.88324">
        <ele>163.769</ele>
        <time>2021-11-24T09:18:37Z</time>
      </trkpt>
      <trkpt lat="46.95975" lon="-0.88312">
        <ele>163.676</ele>
        <time>2021-11-24T09:18:43Z</time>
      </trkpt>
      <trkpt lat="46.9597" lon="-0.88301">
        <ele>162.948</ele>
        <time>2021-11-24T09:18:49Z</time>
      </trkpt>
      <trkpt lat="46.95965" lon="-0.88292">
        <ele>162.042</ele>
        <time>2021-11-24T09:18:55Z</time>
      </trkpt>
      <trkpt lat="46.95961" lon="-0.88284">
        <ele>163.092</ele>
        <time>2021-11-24T09:19:00Z</time>
      </trkpt>
      <trkpt lat="46.95956" lon="-0.88277">
        <ele>164.161</ele>
        <time>2021-11-24T09:19:05Z</time>
      </trkpt>
      <trkpt lat="46.95951" lon="-0.88269">
        <ele>164.289</ele>
        <time>2021-11-24T09:19:11Z</time>
      </trkpt>
      <trkpt lat="46.95947" lon="-0.88262">
        <ele>164.039</ele>
        <time>2021-11-24T09:19:16Z</time>
      </trkpt>
      <trkpt lat="46.95942" lon="-0.88251">
        <ele>164.013</ele>
        <time>2021-11-24T09:19:22Z</time>
      </trkpt>
      <trkpt lat="46.95937" lon="-0.8824">
        <ele>163.516</ele>
        <time>2021-11-24T09:19:27Z</time>
      </trkpt>
      <trkpt lat="46.95932" lon="-0.88225">
        <ele>162.945</ele>
        <time>2021-11-24T09:19:33Z</time>
      </trkpt>
      <trkpt lat="46.95928" lon="-0.88214">
        <ele>163.091</ele>
        <time>2021-11-24T09:19:39Z</time>
      </trkpt>
      <trkpt lat="46.95921" lon="-0.88203">
        <ele>163.087</ele>
        <time>2021-11-24T09:19:45Z</time>
      </trkpt>
      <trkpt lat="46.95917" lon="-0.88192">
        <ele>163.672</ele>
        <time>2021-11-24T09:19:51Z</time>
      </trkpt>
      <trkpt lat="46.95912" lon="-0.88181">
        <ele>163.771</ele>
        <time>2021-11-24T09:19:57Z</time>
      </trkpt>
      <trkpt lat="46.95907" lon="-0.88172">
        <ele>163.975</ele>
        <time>2021-11-24T09:20:02Z</time>
      </trkpt>
      <trkpt lat="46.95902" lon="-0.88163">
        <ele>163.861</ele>
        <time>2021-11-24T09:20:07Z</time>
      </trkpt>
      <trkpt lat="46.95896" lon="-0.88155">
        <ele>164.365</ele>
        <time>2021-11-24T09:20:13Z</time>
      </trkpt>
      <trkpt lat="46.95891" lon="-0.88147">
        <ele>164.286</ele>
        <time>2021-11-24T09:20:18Z</time>
      </trkpt>
      <trkpt lat="46.95886" lon="-0.8814">
        <ele>164.168</ele>
        <time>2021-11-24T09:20:23Z</time>
      </trkpt>
      <trkpt lat="46.95879" lon="-0.88134">
        <ele>165.906</ele>
        <time>2021-11-24T09:20:29Z</time>
      </trkpt>
      <trkpt lat="46.95871" lon="-0.88128">
        <ele>165.302</ele>
        <time>2021-11-24T09:20:35Z</time>
      </trkpt>
      <trkpt lat="46.95863" lon="-0.88123">
        <ele>165.117</ele>
        <time>2021-11-24T09:20:41Z</time>
      </trkpt>
      <trkpt lat="46.95858" lon="-0.88119">
        <ele>165.283</ele>
        <time>2021-11-24T09:20:46Z</time>
      </trkpt>
      <trkpt lat="46.95849" lon="-0.88116">
        <ele>165.327</ele>
        <time>2021-11-24T09:20:52Z</time>
      </trkpt>
      <trkpt lat="46.9584" lon="-0.88114">
        <ele>165.252</ele>
        <time>2021-11-24T09:20:58Z</time>
      </trkpt>
      <trkpt lat="46.95832" lon="-0.88109">
        <ele>165.495</ele>
        <time>2021-11-24T09:21:04Z</time>
      </trkpt>
      <trkpt lat="46.95825" lon="-0.88102">
        <ele>165.152</ele>
        <time>2021-11-24T09:21:10Z</time>
      </trkpt>
      <trkpt lat="46.95819" lon="-0.88096">
        <ele>165.037</ele>
        <time>2021-11-24T09:21:15Z</time>
      </trkpt>
      <trkpt lat="46.95812" lon="-0.88087">
        <ele>164.584</ele>
        <time>2021-11-24T09:21:21Z</time>
      </trkpt>
      <trkpt lat="46.95804" lon="-0.88078">
        <ele>166.501</ele>
        <time>2021-11-24T09:21:27Z</time>
      </trkpt>
      <trkpt lat="46.95799" lon="-0.88071">
        <ele>166.024</ele>
        <time>2021-11-24T09:21:33Z</time>
      </trkpt>
      <trkpt lat="46.95791" lon="-0.88066">
        <ele>168.435</ele>
        <time>2021-11-24T09:21:38Z</time>
      </trkpt>
      <trkpt lat="46.95784" lon="-0.88072">
        <ele>167.816</ele>
        <time>2021-11-24T09:21:44Z</time>
      </trkpt>
      <trkpt lat="46.9578" lon="-0.88079">
        <ele>167.051</ele>
        <time>2021-11-24T09:21:49Z</time>
      </trkpt>
      <trkpt lat="46.95774" lon="-0.88088">
        <ele>166.491</ele>
        <time>2021-11-24T09:21:55Z</time>
      </trkpt>
      <trkpt lat="46.95769" lon="-0.88096">
        <ele>166.467</ele>
        <time>2021-11-24T09:22:00Z</time>
      </trkpt>
      <trkpt lat="46.95764" lon="-0.88105">
        <ele>167.61</ele>
        <time>2021-11-24T09:22:05Z</time>
      </trkpt>
      <trkpt lat="46.95756" lon="-0.88098">
        <ele>167.504</ele>
        <time>2021-11-24T09:22:10Z</time>
      </trkpt>
      <trkpt lat="46.95751" lon="-0.88088">
        <ele>166.853</ele>
        <time>2021-11-24T09:22:16Z</time>
      </trkpt>
      <trkpt lat="46.95746" lon="-0.88078">
        <ele>166.973</ele>
        <time>2021-11-24T09:22:22Z</time>
      </trkpt>
      <trkpt lat="46.9574" lon="-0.88067">
        <ele>168.197</ele>
        <time>2021-11-24T09:22:28Z</time>
      </trkpt>
      <trkpt lat="46.95738" lon="-0.88063">
        <ele>168.024</ele>
        <time>2021-11-24T09:22:34Z</time>
      </trkpt>
      <trkpt lat="46.95731" lon="-0.88066">
        <ele>168.409</ele>
        <time>2021-11-24T09:22:40Z</time>
      </trkpt>
      <trkpt lat="46.95723" lon="-0.88059">
        <ele>168.68</ele>
        <time>2021-11-24T09:22:46Z</time>
      </trkpt>
      <trkpt lat="46.95717" lon="-0.88062">
        <ele>169.857</ele>
        <time>2021-11-24T09:22:52Z</time>
      </trkpt>
      <trkpt lat="46.95711" lon="-0.88065">
        <ele>171.079</ele>
        <time>2021-11-24T09:22:57Z</time>
      </trkpt>
      <trkpt lat="46.95703" lon="-0.88069">
        <ele>171.755</ele>
        <time>2021-11-24T09:23:03Z</time>
      </trkpt>
      <trkpt lat="46.95696" lon="-0.88072">
        <ele>172.016</ele>
        <time>2021-11-24T09:23:08Z</time>
      </trkpt>
      <trkpt lat="46.9569" lon="-0.88076">
        <ele>172.862</ele>
        <time>2021-11-24T09:23:14Z</time>
      </trkpt>
      <trkpt lat="46.95683" lon="-0.88079">
        <ele>172.812</ele>
        <time>2021-11-24T09:23:20Z</time>
      </trkpt>
      <trkpt lat="46.95675" lon="-0.88081">
        <ele>174.771</ele>
        <time>2021-11-24T09:23:26Z</time>
      </trkpt>
      <trkpt lat="46.95669" lon="-0.88081">
        <ele>174.319</ele>
        <time>2021-11-24T09:23:31Z</time>
      </trkpt>
      <trkpt lat="46.95663" lon="-0.88082">
        <ele>175.364</ele>
        <time>2021-11-24T09:23:36Z</time>
      </trkpt>
      <trkpt lat="46.95657" lon="-0.88087">
        <ele>175.746</ele>
        <time>2021-11-24T09:23:42Z</time>
      </trkpt>
      <trkpt lat="46.9566" lon="-0.88086">
        <ele>175.957</ele>
        <time>2021-11-24T09:23:48Z</time>
      </trkpt>
      <trkpt lat="46.95653" lon="-0.88088">
        <ele>176.914</ele>
        <time>2021-11-24T09:23:54Z</time>
      </trkpt>
      <trkpt lat="46.95646" lon="-0.88092">
        <ele>178.196</ele>
        <time>2021-11-24T09:24:00Z</time>
      </trkpt>
      <trkpt lat="46.95639" lon="-0.88089">
        <ele>179.339</ele>
        <time>2021-11-24T09:24:06Z</time>
      </trkpt>
      <trkpt lat="46.95633" lon="-0.88084">
        <ele>181.763</ele>
        <time>2021-11-24T09:24:12Z</time>
      </trkpt>
      <trkpt lat="46.95627" lon="-0.88085">
        <ele>182.193</ele>
        <time>2021-11-24T09:24:17Z</time>
      </trkpt>
      <trkpt lat="46.9562" lon="-0.88086">
        <ele>183.475</ele>
        <time>2021-11-24T09:24:23Z</time>
      </trkpt>
      <trkpt lat="46.95614" lon="-0.88084">
        <ele>185.228</ele>
        <time>2021-11-24T09:24:29Z</time>
      </trkpt>
      <trkpt lat="46.95607" lon="-0.88085">
        <ele>185.081</ele>
        <time>2021-11-24T09:24:35Z</time>
      </trkpt>
      <trkpt lat="46.95601" lon="-0.88086">
        <ele>185.644</ele>
        <time>2021-11-24T09:24:40Z</time>
      </trkpt>
      <trkpt lat="46.95592" lon="-0.88086">
        <ele>185.775</ele>
        <time>2021-11-24T09:24:46Z</time>
      </trkpt>
      <trkpt lat="46.95586" lon="-0.88086">
        <ele>186.892</ele>
        <time>2021-11-24T09:24:51Z</time>
      </trkpt>
      <trkpt lat="46.95579" lon="-0.88083">
        <ele>188.972</ele>
        <time>2021-11-24T09:24:57Z</time>
      </trkpt>
      <trkpt lat="46.95571" lon="-0.8808">
        <ele>188.942</ele>
        <time>2021-11-24T09:25:03Z</time>
      </trkpt>
      <trkpt lat="46.95565" lon="-0.88076">
        <ele>188.666</ele>
        <time>2021-11-24T09:25:08Z</time>
      </trkpt>
      <trkpt lat="46.95557" lon="-0.8807">
        <ele>190.156</ele>
        <time>2021-11-24T09:25:14Z</time>
      </trkpt>
      <trkpt lat="46.95548" lon="-0.88064">
        <ele>192.804</ele>
        <time>2021-11-24T09:25:20Z</time>
      </trkpt>
      <trkpt lat="46.95541" lon="-0.88061">
        <ele>192.927</ele>
        <time>2021-11-24T09:25:26Z</time>
      </trkpt>
      <trkpt lat="46.95537" lon="-0.88057">
        <ele>194.211</ele>
        <time>2021-11-24T09:25:31Z</time>
      </trkpt>
      <trkpt lat="46.95531" lon="-0.88054">
        <ele>195.002</ele>
        <time>2021-11-24T09:25:37Z</time>
      </trkpt>
      <trkpt lat="46.95524" lon="-0.88053">
        <ele>195.76</ele>
        <time>2021-11-24T09:25:43Z</time>
      </trkpt>
      <trkpt lat="46.95517" lon="-0.8805">
        <ele>195.53</ele>
        <time>2021-11-24T09:25:49Z</time>
      </trkpt>
      <trkpt lat="46.95511" lon="-0.88046">
        <ele>192.946</ele>
        <time>2021-11-24T09:25:55Z</time>
      </trkpt>
      <trkpt lat="46.95504" lon="-0.88042">
        <ele>194.686</ele>
        <time>2021-11-24T09:26:01Z</time>
      </trkpt>
      <trkpt lat="46.95497" lon="-0.88041">
        <ele>195.872</ele>
        <time>2021-11-24T09:26:07Z</time>
      </trkpt>
      <trkpt lat="46.9549" lon="-0.8804">
        <ele>196.577</ele>
        <time>2021-11-24T09:26:13Z</time>
      </trkpt>
      <trkpt lat="46.95483" lon="-0.88036">
        <ele>197.617</ele>
        <time>2021-11-24T09:26:19Z</time>
      </trkpt>
      <trkpt lat="46.95476" lon="-0.88033">
        <ele>199.11</ele>
        <time>2021-11-24T09:26:25Z</time>
      </trkpt>
      <trkpt lat="46.95468" lon="-0.8803">
        <ele>200.212</ele>
        <time>2021-11-24T09:26:31Z</time>
      </trkpt>
      <trkpt lat="46.9546" lon="-0.88032">
        <ele>200.833</ele>
        <time>2021-11-24T09:26:37Z</time>
      </trkpt>
      <trkpt lat="46.9545" lon="-0.88033">
        <ele>201.604</ele>
        <time>2021-11-24T09:26:43Z</time>
      </trkpt>
      <trkpt lat="46.95442" lon="-0.8803">
        <ele>201.785</ele>
        <time>2021-11-24T09:26:49Z</time>
      </trkpt>
      <trkpt lat="46.95437" lon="-0.88023">
        <ele>202.161</ele>
        <time>2021-11-24T09:26:54Z</time>
      </trkpt>
      <trkpt lat="46.95431" lon="-0.88014">
        <ele>204.342</ele>
        <time>2021-11-24T09:27:00Z</time>
      </trkpt>
      <trkpt lat="46.95427" lon="-0.88004">
        <ele>203.161</ele>
        <time>2021-11-24T09:27:06Z</time>
      </trkpt>
      <trkpt lat="46.95424" lon="-0.87995">
        <ele>204.257</ele>
        <time>2021-11-24T09:27:11Z</time>
      </trkpt>
      <trkpt lat="46.9542" lon="-0.87997">
        <ele>204.574</ele>
        <time>2021-11-24T09:27:17Z</time>
      </trkpt>
      <trkpt lat="46.95417" lon="-0.88007">
        <ele>204.774</ele>
        <time>2021-11-24T09:27:23Z</time>
      </trkpt>
      <trkpt lat="46.95415" lon="-0.88017">
        <ele>204.739</ele>
        <time>2021-11-24T09:27:28Z</time>
      </trkpt>
      <trkpt lat="46.95414" lon="-0.88028">
        <ele>204.686</ele>
        <time>2021-11-24T09:27:34Z</time>
      </trkpt>
      <trkpt lat="46.95413" lon="-0.88039">
        <ele>204.581</ele>
        <time>2021-11-24T09:27:40Z</time>
      </trkpt>
      <trkpt lat="46.95412" lon="-0.8805">
        <ele>204.204</ele>
        <time>2021-11-24T09:27:46Z</time>
      </trkpt>
      <trkpt lat="46.9541" lon="-0.88062">
        <ele>203.711</ele>
        <time>2021-11-24T09:27:52Z</time>
      </trkpt>
      <trkpt lat="46.95409" lon="-0.88072">
        <ele>203.187</ele>
        <time>2021-11-24T09:27:57Z</time>
      </trkpt>
      <trkpt lat="46.95408" lon="-0.88082">
        <ele>149.1</ele>
        <time>2021-11-24T09:28:02Z</time>
      </trkpt>
      <trkpt lat="46.95414" lon="-0.88135">
        <ele>145.3</ele>
        <time>2021-11-24T09:28:30Z</time>
      </trkpt>
      <trkpt lat="46.95423" lon="-0.8814">
        <ele>198.329</ele>
        <time>2021-11-24T09:28:35Z</time>
      </trkpt>
      <trkpt lat="46.9543" lon="-0.88145">
        <ele>197.467</ele>
        <time>2021-11-24T09:28:41Z</time>
      </trkpt>
      <trkpt lat="46.95438" lon="-0.88147">
        <ele>196.472</ele>
        <time>2021-11-24T09:28:47Z</time>
      </trkpt>
      <trkpt lat="46.95444" lon="-0.88149">
        <ele>195.085</ele>
        <time>2021-11-24T09:28:52Z</time>
      </trkpt>
      <trkpt lat="46.95452" lon="-0.88152">
        <ele>194.083</ele>
        <time>2021-11-24T09:28:57Z</time>
      </trkpt>
      <trkpt lat="46.95459" lon="-0.88156">
        <ele>193.417</ele>
        <time>2021-11-24T09:29:03Z</time>
      </trkpt>
      <trkpt lat="46.9546" lon="-0.88159">
        <ele>193.09</ele>
        <time>2021-11-24T09:29:08Z</time>
      </trkpt>
      <trkpt lat="46.95467" lon="-0.88158">
        <ele>192.567</ele>
        <time>2021-11-24T09:29:14Z</time>
      </trkpt>
      <trkpt lat="46.95469" lon="-0.88161">
        <ele>192.723</ele>
        <time>2021-11-24T09:29:20Z</time>
      </trkpt>
      <trkpt lat="46.9547" lon="-0.88161">
        <ele>192.465</ele>
        <time>2021-11-24T09:29:25Z</time>
      </trkpt>
      <trkpt lat="46.9547" lon="-0.8816">
        <ele>192.361</ele>
        <time>2021-11-24T09:29:31Z</time>
      </trkpt>
      <trkpt lat="46.9547" lon="-0.88161">
        <ele>191.477</ele>
        <time>2021-11-24T09:29:48Z</time>
      </trkpt>
      <trkpt lat="46.95471" lon="-0.88161">
        <ele>191.363</ele>
        <time>2021-11-24T09:29:53Z</time>
      </trkpt>
      <trkpt lat="46.95471" lon="-0.8816">
        <ele>191.233</ele>
        <time>2021-11-24T09:29:59Z</time>
      </trkpt>
      <trkpt lat="46.95476" lon="-0.88159">
        <ele>190.553</ele>
        <time>2021-11-24T09:30:16Z</time>
      </trkpt>
      <trkpt lat="46.95482" lon="-0.88161">
        <ele>190.104</ele>
        <time>2021-11-24T09:30:21Z</time>
      </trkpt>
      <trkpt lat="46.95488" lon="-0.88163">
        <ele>190.017</ele>
        <time>2021-11-24T09:30:26Z</time>
      </trkpt>
      <trkpt lat="46.95494" lon="-0.88165">
        <ele>189.66</ele>
        <time>2021-11-24T09:30:31Z</time>
      </trkpt>
      <trkpt lat="46.95504" lon="-0.88168">
        <ele>189.24</ele>
        <time>2021-11-24T09:30:37Z</time>
      </trkpt>
      <trkpt lat="46.95511" lon="-0.88173">
        <ele>188.887</ele>
        <time>2021-11-24T09:30:43Z</time>
      </trkpt>
      <trkpt lat="46.95517" lon="-0.88175">
        <ele>188.534</ele>
        <time>2021-11-24T09:30:48Z</time>
      </trkpt>
      <trkpt lat="46.95522" lon="-0.88179">
        <ele>188.377</ele>
        <time>2021-11-24T09:30:53Z</time>
      </trkpt>
      <trkpt lat="46.95529" lon="-0.88182">
        <ele>185.733</ele>
        <time>2021-11-24T09:30:59Z</time>
      </trkpt>
      <trkpt lat="46.95534" lon="-0.88186">
        <ele>185.576</ele>
        <time>2021-11-24T09:31:04Z</time>
      </trkpt>
      <trkpt lat="46.9554" lon="-0.8819">
        <ele>185.14</ele>
        <time>2021-11-24T09:31:10Z</time>
      </trkpt>
      <trkpt lat="46.95543" lon="-0.882">
        <ele>185.287</ele>
        <time>2021-11-24T09:31:16Z</time>
      </trkpt>
      <trkpt lat="46.95539" lon="-0.8821">
        <ele>185.172</ele>
        <time>2021-11-24T09:31:21Z</time>
      </trkpt>
      <trkpt lat="46.95533" lon="-0.88217">
        <ele>184.613</ele>
        <time>2021-11-24T09:31:26Z</time>
      </trkpt>
      <trkpt lat="46.95527" lon="-0.88219">
        <ele>183.91</ele>
        <time>2021-11-24T09:31:31Z</time>
      </trkpt>
      <trkpt lat="46.95519" lon="-0.88223">
        <ele>183.108</ele>
        <time>2021-11-24T09:31:37Z</time>
      </trkpt>
      <trkpt lat="46.95511" lon="-0.88227">
        <ele>182.364</ele>
        <time>2021-11-24T09:31:43Z</time>
      </trkpt>
      <trkpt lat="46.95505" lon="-0.88231">
        <ele>181.472</ele>
        <time>2021-11-24T09:31:48Z</time>
      </trkpt>
      <trkpt lat="46.95498" lon="-0.88233">
        <ele>181.002</ele>
        <time>2021-11-24T09:31:53Z</time>
      </trkpt>
      <trkpt lat="46.9549" lon="-0.88236">
        <ele>179.6</ele>
        <time>2021-11-24T09:31:59Z</time>
      </trkpt>
      <trkpt lat="46.95482" lon="-0.88238">
        <ele>179.057</ele>
        <time>2021-11-24T09:32:05Z</time>
      </trkpt>
      <trkpt lat="46.95473" lon="-0.88244">
        <ele>180.022</ele>
        <time>2021-11-24T09:32:10Z</time>
      </trkpt>
      <trkpt lat="46.95466" lon="-0.88248">
        <ele>178.484</ele>
        <time>2021-11-24T09:32:16Z</time>
      </trkpt>
      <trkpt lat="46.95459" lon="-0.88251">
        <ele>177.624</ele>
        <time>2021-11-24T09:32:21Z</time>
      </trkpt>
      <trkpt lat="46.95452" lon="-0.88254">
        <ele>175.375</ele>
        <time>2021-11-24T09:32:27Z</time>
      </trkpt>
      <trkpt lat="46.95446" lon="-0.88258">
        <ele>174.801</ele>
        <time>2021-11-24T09:32:32Z</time>
      </trkpt>
      <trkpt lat="46.95439" lon="-0.88265">
        <ele>173.47</ele>
        <time>2021-11-24T09:32:38Z</time>
      </trkpt>
      <trkpt lat="46.95431" lon="-0.88271">
        <ele>172.503</ele>
        <time>2021-11-24T09:32:43Z</time>
      </trkpt>
      <trkpt lat="46.95424" lon="-0.88276">
        <ele>172.186</ele>
        <time>2021-11-24T09:32:49Z</time>
      </trkpt>
      <trkpt lat="46.95417" lon="-0.88282">
        <ele>170.813</ele>
        <time>2021-11-24T09:32:55Z</time>
      </trkpt>
      <trkpt lat="46.9541" lon="-0.88288">
        <ele>170.454</ele>
        <time>2021-11-24T09:33:00Z</time>
      </trkpt>
      <trkpt lat="46.95401" lon="-0.88292">
        <ele>169.264</ele>
        <time>2021-11-24T09:33:06Z</time>
      </trkpt>
      <trkpt lat="46.95395" lon="-0.88297">
        <ele>168.88</ele>
        <time>2021-11-24T09:33:11Z</time>
      </trkpt>
      <trkpt lat="46.95389" lon="-0.88301">
        <ele>168.197</ele>
        <time>2021-11-24T09:33:16Z</time>
      </trkpt>
      <trkpt lat="46.95381" lon="-0.88305">
        <ele>167.304</ele>
        <time>2021-11-24T09:33:22Z</time>
      </trkpt>
      <trkpt lat="46.95372" lon="-0.88309">
        <ele>167.209</ele>
        <time>2021-11-24T09:33:28Z</time>
      </trkpt>
      <trkpt lat="46.95363" lon="-0.88314">
        <ele>167.167</ele>
        <time>2021-11-24T09:33:34Z</time>
      </trkpt>
      <trkpt lat="46.95357" lon="-0.8832">
        <ele>166.135</ele>
        <time>2021-11-24T09:33:40Z</time>
      </trkpt>
      <trkpt lat="46.95352" lon="-0.88326">
        <ele>165.807</ele>
        <time>2021-11-24T09:33:45Z</time>
      </trkpt>
      <trkpt lat="46.95345" lon="-0.88333">
        <ele>165.153</ele>
        <time>2021-11-24T09:33:51Z</time>
      </trkpt>
      <trkpt lat="46.95338" lon="-0.88341">
        <ele>165.662</ele>
        <time>2021-11-24T09:33:57Z</time>
      </trkpt>
      <trkpt lat="46.95333" lon="-0.88349">
        <ele>164.827</ele>
        <time>2021-11-24T09:34:02Z</time>
      </trkpt>
      <trkpt lat="46.95326" lon="-0.88353">
        <ele>164.484</ele>
        <time>2021-11-24T09:34:08Z</time>
      </trkpt>
      <trkpt lat="46.95318" lon="-0.88353">
        <ele>164.098</ele>
        <time>2021-11-24T09:34:13Z</time>
      </trkpt>
      <trkpt lat="46.95311" lon="-0.88354">
        <ele>164.182</ele>
        <time>2021-11-24T09:34:18Z</time>
      </trkpt>
      <trkpt lat="46.95305" lon="-0.88356">
        <ele>164.791</ele>
        <time>2021-11-24T09:34:23Z</time>
      </trkpt>
      <trkpt lat="46.95298" lon="-0.88357">
        <ele>164.572</ele>
        <time>2021-11-24T09:34:29Z</time>
      </trkpt>
      <trkpt lat="46.9529" lon="-0.88361">
        <ele>164.444</ele>
        <time>2021-11-24T09:34:35Z</time>
      </trkpt>
      <trkpt lat="46.95283" lon="-0.88363">
        <ele>164.648</ele>
        <time>2021-11-24T09:34:40Z</time>
      </trkpt>
      <trkpt lat="46.95277" lon="-0.88366">
        <ele>164.821</ele>
        <time>2021-11-24T09:34:46Z</time>
      </trkpt>
      <trkpt lat="46.9527" lon="-0.88367">
        <ele>164.709</ele>
        <time>2021-11-24T09:34:51Z</time>
      </trkpt>
      <trkpt lat="46.95262" lon="-0.8837">
        <ele>164.979</ele>
        <time>2021-11-24T09:34:57Z</time>
      </trkpt>
      <trkpt lat="46.95258" lon="-0.8837">
        <ele>164.573</ele>
        <time>2021-11-24T09:35:02Z</time>
      </trkpt>
      <trkpt lat="46.95251" lon="-0.88372">
        <ele>163.856</ele>
        <time>2021-11-24T09:35:11Z</time>
      </trkpt>
      <trkpt lat="46.95242" lon="-0.88386">
        <ele>113.8</ele>
        <time>2021-11-24T09:35:17Z</time>
      </trkpt>
      <trkpt lat="46.95235" lon="-0.88386">
        <ele>113.7</ele>
        <time>2021-11-24T09:35:23Z</time>
      </trkpt>
      <trkpt lat="46.95227" lon="-0.88383">
        <ele>114.4</ele>
        <time>2021-11-24T09:35:28Z</time>
      </trkpt>
      <trkpt lat="46.95221" lon="-0.88381">
        <ele>115</ele>
        <time>2021-11-24T09:35:33Z</time>
      </trkpt>
      <trkpt lat="46.95214" lon="-0.88379">
        <ele>162.426</ele>
        <time>2021-11-24T09:35:38Z</time>
      </trkpt>
      <trkpt lat="46.95206" lon="-0.88376">
        <ele>162.501</ele>
        <time>2021-11-24T09:35:44Z</time>
      </trkpt>
      <trkpt lat="46.95197" lon="-0.88376">
        <ele>161.864</ele>
        <time>2021-11-24T09:35:50Z</time>
      </trkpt>
      <trkpt lat="46.95189" lon="-0.88372">
        <ele>161.576</ele>
        <time>2021-11-24T09:35:55Z</time>
      </trkpt>
      <trkpt lat="46.95181" lon="-0.88367">
        <ele>162.045</ele>
        <time>2021-11-24T09:36:01Z</time>
      </trkpt>
      <trkpt lat="46.95174" lon="-0.88363">
        <ele>161.61</ele>
        <time>2021-11-24T09:36:06Z</time>
      </trkpt>
      <trkpt lat="46.95165" lon="-0.88359">
        <ele>163.109</ele>
        <time>2021-11-24T09:36:12Z</time>
      </trkpt>
      <trkpt lat="46.95156" lon="-0.88355">
        <ele>163.635</ele>
        <time>2021-11-24T09:36:18Z</time>
      </trkpt>
      <trkpt lat="46.95149" lon="-0.8835">
        <ele>163.634</ele>
        <time>2021-11-24T09:36:24Z</time>
      </trkpt>
      <trkpt lat="46.95142" lon="-0.88344">
        <ele>164.03</ele>
        <time>2021-11-24T09:36:30Z</time>
      </trkpt>
      <trkpt lat="46.95134" lon="-0.88339">
        <ele>164.43</ele>
        <time>2021-11-24T09:36:36Z</time>
      </trkpt>
      <trkpt lat="46.95128" lon="-0.88334">
        <ele>164.845</ele>
        <time>2021-11-24T09:36:41Z</time>
      </trkpt>
      <trkpt lat="46.95121" lon="-0.88327">
        <ele>164.673</ele>
        <time>2021-11-24T09:36:47Z</time>
      </trkpt>
      <trkpt lat="46.95115" lon="-0.88318">
        <ele>164.966</ele>
        <time>2021-11-24T09:36:53Z</time>
      </trkpt>
      <trkpt lat="46.9511" lon="-0.88309">
        <ele>165.007</ele>
        <time>2021-11-24T09:36:59Z</time>
      </trkpt>
      <trkpt lat="46.95104" lon="-0.88299">
        <ele>165.163</ele>
        <time>2021-11-24T09:37:05Z</time>
      </trkpt>
      <trkpt lat="46.951" lon="-0.8829">
        <ele>164.828</ele>
        <time>2021-11-24T09:37:11Z</time>
      </trkpt>
      <trkpt lat="46.95095" lon="-0.8828">
        <ele>165.782</ele>
        <time>2021-11-24T09:37:17Z</time>
      </trkpt>
      <trkpt lat="46.9509" lon="-0.88272">
        <ele>165.897</ele>
        <time>2021-11-24T09:37:22Z</time>
      </trkpt>
      <trkpt lat="46.95085" lon="-0.88263">
        <ele>166.637</ele>
        <time>2021-11-24T09:37:27Z</time>
      </trkpt>
      <trkpt lat="46.9508" lon="-0.88252">
        <ele>167.273</ele>
        <time>2021-11-24T09:37:33Z</time>
      </trkpt>
      <trkpt lat="46.95077" lon="-0.8824">
        <ele>167.724</ele>
        <time>2021-11-24T09:37:39Z</time>
      </trkpt>
      <trkpt lat="46.95074" lon="-0.8823">
        <ele>167.517</ele>
        <time>2021-11-24T09:37:45Z</time>
      </trkpt>
      <trkpt lat="46.9507" lon="-0.88221">
        <ele>168.371</ele>
        <time>2021-11-24T09:37:50Z</time>
      </trkpt>
      <trkpt lat="46.95066" lon="-0.88213">
        <ele>168.338</ele>
        <time>2021-11-24T09:37:56Z</time>
      </trkpt>
      <trkpt lat="46.95061" lon="-0.88205">
        <ele>168.426</ele>
        <time>2021-11-24T09:38:02Z</time>
      </trkpt>
      <trkpt lat="46.95056" lon="-0.88197">
        <ele>169.006</ele>
        <time>2021-11-24T09:38:07Z</time>
      </trkpt>
      <trkpt lat="46.95051" lon="-0.88189">
        <ele>167.725</ele>
        <time>2021-11-24T09:38:13Z</time>
      </trkpt>
      <trkpt lat="46.95045" lon="-0.88182">
        <ele>168.923</ele>
        <time>2021-11-24T09:38:18Z</time>
      </trkpt>
      <trkpt lat="46.9504" lon="-0.88175">
        <ele>168.793</ele>
        <time>2021-11-24T09:38:23Z</time>
      </trkpt>
      <trkpt lat="46.95034" lon="-0.88166">
        <ele>168.046</ele>
        <time>2021-11-24T09:38:29Z</time>
      </trkpt>
      <trkpt lat="46.95028" lon="-0.8816">
        <ele>168.9</ele>
        <time>2021-11-24T09:38:34Z</time>
      </trkpt>
      <trkpt lat="46.9502" lon="-0.88151">
        <ele>168.615</ele>
        <time>2021-11-24T09:38:40Z</time>
      </trkpt>
      <trkpt lat="46.95014" lon="-0.88146">
        <ele>168.545</ele>
        <time>2021-11-24T09:38:45Z</time>
      </trkpt>
      <trkpt lat="46.95007" lon="-0.8814">
        <ele>168.191</ele>
        <time>2021-11-24T09:38:51Z</time>
      </trkpt>
      <trkpt lat="46.95" lon="-0.88137">
        <ele>168.232</ele>
        <time>2021-11-24T09:38:57Z</time>
      </trkpt>
      <trkpt lat="46.94993" lon="-0.88134">
        <ele>167.235</ele>
        <time>2021-11-24T09:39:02Z</time>
      </trkpt>
      <trkpt lat="46.94986" lon="-0.88132">
        <ele>166.916</ele>
        <time>2021-11-24T09:39:08Z</time>
      </trkpt>
      <trkpt lat="46.94979" lon="-0.88132">
        <ele>166.786</ele>
        <time>2021-11-24T09:39:14Z</time>
      </trkpt>
      <trkpt lat="46.94974" lon="-0.88134">
        <ele>166.437</ele>
        <time>2021-11-24T09:39:19Z</time>
      </trkpt>
      <trkpt lat="46.94967" lon="-0.88137">
        <ele>166.03</ele>
        <time>2021-11-24T09:39:25Z</time>
      </trkpt>
      <trkpt lat="46.94959" lon="-0.88138">
        <ele>165.894</ele>
        <time>2021-11-24T09:39:31Z</time>
      </trkpt>
      <trkpt lat="46.94952" lon="-0.88139">
        <ele>165.701</ele>
        <time>2021-11-24T09:39:37Z</time>
      </trkpt>
      <trkpt lat="46.94945" lon="-0.88136">
        <ele>165.298</ele>
        <time>2021-11-24T09:39:43Z</time>
      </trkpt>
      <trkpt lat="46.94941" lon="-0.88136">
        <ele>165.144</ele>
        <time>2021-11-24T09:39:49Z</time>
      </trkpt>
      <trkpt lat="46.9494" lon="-0.88137">
        <ele>165.168</ele>
        <time>2021-11-24T09:39:54Z</time>
      </trkpt>
      <trkpt lat="46.94937" lon="-0.88135">
        <ele>164.945</ele>
        <time>2021-11-24T09:40:12Z</time>
      </trkpt>
      <trkpt lat="46.94929" lon="-0.8813">
        <ele>164.901</ele>
        <time>2021-11-24T09:40:18Z</time>
      </trkpt>
      <trkpt lat="46.94922" lon="-0.88127">
        <ele>163.982</ele>
        <time>2021-11-24T09:40:24Z</time>
      </trkpt>
      <trkpt lat="46.94916" lon="-0.88121">
        <ele>164.107</ele>
        <time>2021-11-24T09:40:29Z</time>
      </trkpt>
      <trkpt lat="46.94909" lon="-0.88116">
        <ele>164.074</ele>
        <time>2021-11-24T09:40:34Z</time>
      </trkpt>
      <trkpt lat="46.94901" lon="-0.88112">
        <ele>163.821</ele>
        <time>2021-11-24T09:40:40Z</time>
      </trkpt>
      <trkpt lat="46.94894" lon="-0.88104">
        <ele>163.962</ele>
        <time>2021-11-24T09:40:46Z</time>
      </trkpt>
      <trkpt lat="46.94888" lon="-0.88099">
        <ele>164.033</ele>
        <time>2021-11-24T09:40:51Z</time>
      </trkpt>
      <trkpt lat="46.94882" lon="-0.88094">
        <ele>164.638</ele>
        <time>2021-11-24T09:40:56Z</time>
      </trkpt>
      <trkpt lat="46.94877" lon="-0.88091">
        <ele>163.475</ele>
        <time>2021-11-24T09:41:02Z</time>
      </trkpt>
      <trkpt lat="46.94871" lon="-0.88084">
        <ele>164.045</ele>
        <time>2021-11-24T09:41:07Z</time>
      </trkpt>
      <trkpt lat="46.94864" lon="-0.8808">
        <ele>164.081</ele>
        <time>2021-11-24T09:41:13Z</time>
      </trkpt>
      <trkpt lat="46.94858" lon="-0.88076">
        <ele>164.214</ele>
        <time>2021-11-24T09:41:18Z</time>
      </trkpt>
      <trkpt lat="46.94852" lon="-0.88072">
        <ele>164.083</ele>
        <time>2021-11-24T09:41:23Z</time>
      </trkpt>
      <trkpt lat="46.94845" lon="-0.88067">
        <ele>164.424</ele>
        <time>2021-11-24T09:41:28Z</time>
      </trkpt>
      <trkpt lat="46.94838" lon="-0.88063">
        <ele>164.845</ele>
        <time>2021-11-24T09:41:34Z</time>
      </trkpt>
      <trkpt lat="46.9483" lon="-0.88059">
        <ele>165.037</ele>
        <time>2021-11-24T09:41:40Z</time>
      </trkpt>
      <trkpt lat="46.94821" lon="-0.88056">
        <ele>164.91</ele>
        <time>2021-11-24T09:41:46Z</time>
      </trkpt>
      <trkpt lat="46.94814" lon="-0.88055">
        <ele>165.66</ele>
        <time>2021-11-24T09:41:51Z</time>
      </trkpt>
      <trkpt lat="46.94807" lon="-0.88055">
        <ele>165.139</ele>
        <time>2021-11-24T09:41:56Z</time>
      </trkpt>
      <trkpt lat="46.94801" lon="-0.88057">
        <ele>165.179</ele>
        <time>2021-11-24T09:42:01Z</time>
      </trkpt>
      <trkpt lat="46.94793" lon="-0.88059">
        <ele>165.703</ele>
        <time>2021-11-24T09:42:07Z</time>
      </trkpt>
      <trkpt lat="46.94787" lon="-0.88062">
        <ele>166.019</ele>
        <time>2021-11-24T09:42:12Z</time>
      </trkpt>
      <trkpt lat="46.9478" lon="-0.88066">
        <ele>165.598</ele>
        <time>2021-11-24T09:42:17Z</time>
      </trkpt>
      <trkpt lat="46.94771" lon="-0.88067">
        <ele>165.536</ele>
        <time>2021-11-24T09:42:23Z</time>
      </trkpt>
      <trkpt lat="46.94763" lon="-0.88067">
        <ele>165.877</ele>
        <time>2021-11-24T09:42:28Z</time>
      </trkpt>
      <trkpt lat="46.94757" lon="-0.88065">
        <ele>165.626</ele>
        <time>2021-11-24T09:42:33Z</time>
      </trkpt>
      <trkpt lat="46.94751" lon="-0.88061">
        <ele>165.46</ele>
        <time>2021-11-24T09:42:38Z</time>
      </trkpt>
      <trkpt lat="46.94744" lon="-0.88051">
        <ele>165.583</ele>
        <time>2021-11-24T09:42:44Z</time>
      </trkpt>
      <trkpt lat="46.94739" lon="-0.8804">
        <ele>166.136</ele>
        <time>2021-11-24T09:42:50Z</time>
      </trkpt>
      <trkpt lat="46.94733" lon="-0.8803">
        <ele>165.512</ele>
        <time>2021-11-24T09:42:56Z</time>
      </trkpt>
      <trkpt lat="46.94728" lon="-0.8802">
        <ele>166.422</ele>
        <time>2021-11-24T09:43:02Z</time>
      </trkpt>
      <trkpt lat="46.94724" lon="-0.88015">
        <ele>170.039</ele>
        <time>2021-11-24T09:43:08Z</time>
      </trkpt>
      <trkpt lat="46.94722" lon="-0.88014">
        <ele>169.552</ele>
        <time>2021-11-24T09:43:13Z</time>
      </trkpt>
      <trkpt lat="46.94718" lon="-0.88017">
        <ele>169.237</ele>
        <time>2021-11-24T09:43:19Z</time>
      </trkpt>
      <trkpt lat="46.94714" lon="-0.88021">
        <ele>169.965</ele>
        <time>2021-11-24T09:43:25Z</time>
      </trkpt>
      <trkpt lat="46.9471" lon="-0.88024">
        <ele>171.133</ele>
        <time>2021-11-24T09:43:31Z</time>
      </trkpt>
      <trkpt lat="46.94706" lon="-0.88025">
        <ele>171.465</ele>
        <time>2021-11-24T09:43:36Z</time>
      </trkpt>
      <trkpt lat="46.94702" lon="-0.88026">
        <ele>170.477</ele>
        <time>2021-11-24T09:43:41Z</time>
      </trkpt>
      <trkpt lat="46.94697" lon="-0.8803">
        <ele>171.517</ele>
        <time>2021-11-24T09:43:47Z</time>
      </trkpt>
      <trkpt lat="46.94693" lon="-0.88033">
        <ele>171.685</ele>
        <time>2021-11-24T09:43:52Z</time>
      </trkpt>
      <trkpt lat="46.94685" lon="-0.88036">
        <ele>172.104</ele>
        <time>2021-11-24T09:43:58Z</time>
      </trkpt>
      <trkpt lat="46.94679" lon="-0.88036">
        <ele>172.534</ele>
        <time>2021-11-24T09:44:03Z</time>
      </trkpt>
      <trkpt lat="46.94675" lon="-0.88034">
        <ele>173.777</ele>
        <time>2021-11-24T09:44:08Z</time>
      </trkpt>
      <trkpt lat="46.94669" lon="-0.88032">
        <ele>174.664</ele>
        <time>2021-11-24T09:44:14Z</time>
      </trkpt>
      <trkpt lat="46.94664" lon="-0.88029">
        <ele>174.767</ele>
        <time>2021-11-24T09:44:19Z</time>
      </trkpt>
      <trkpt lat="46.94659" lon="-0.8802">
        <ele>175.24</ele>
        <time>2021-11-24T09:44:25Z</time>
      </trkpt>
      <trkpt lat="46.94654" lon="-0.88019">
        <ele>175.444</ele>
        <time>2021-11-24T09:44:30Z</time>
      </trkpt>
      <trkpt lat="46.94649" lon="-0.8802">
        <ele>176.289</ele>
        <time>2021-11-24T09:44:35Z</time>
      </trkpt>
      <trkpt lat="46.94644" lon="-0.8802">
        <ele>176.808</ele>
        <time>2021-11-24T09:44:41Z</time>
      </trkpt>
      <trkpt lat="46.94638" lon="-0.88016">
        <ele>177.41</ele>
        <time>2021-11-24T09:44:47Z</time>
      </trkpt>
      <trkpt lat="46.94632" lon="-0.88014">
        <ele>179.253</ele>
        <time>2021-11-24T09:44:53Z</time>
      </trkpt>
      <trkpt lat="46.94627" lon="-0.88013">
        <ele>179.439</ele>
        <time>2021-11-24T09:44:58Z</time>
      </trkpt>
      <trkpt lat="46.94621" lon="-0.8801">
        <ele>180.926</ele>
        <time>2021-11-24T09:45:04Z</time>
      </trkpt>
      <trkpt lat="46.94617" lon="-0.88007">
        <ele>181.653</ele>
        <time>2021-11-24T09:45:09Z</time>
      </trkpt>
      <trkpt lat="46.94614" lon="-0.88003">
        <ele>182.273</ele>
        <time>2021-11-24T09:45:14Z</time>
      </trkpt>
      <trkpt lat="46.94608" lon="-0.88001">
        <ele>183.423</ele>
        <time>2021-11-24T09:45:20Z</time>
      </trkpt>
      <trkpt lat="46.94601" lon="-0.88001">
        <ele>184.772</ele>
        <time>2021-11-24T09:45:26Z</time>
      </trkpt>
      <trkpt lat="46.94598" lon="-0.88005">
        <ele>184.882</ele>
        <time>2021-11-24T09:45:31Z</time>
      </trkpt>
      <trkpt lat="46.94592" lon="-0.88008">
        <ele>186.12</ele>
        <time>2021-11-24T09:45:37Z</time>
      </trkpt>
      <trkpt lat="46.94585" lon="-0.88009">
        <ele>186.754</ele>
        <time>2021-11-24T09:45:43Z</time>
      </trkpt>
      <trkpt lat="46.9458" lon="-0.88007">
        <ele>187.627</ele>
        <time>2021-11-24T09:45:48Z</time>
      </trkpt>
      <trkpt lat="46.94574" lon="-0.88005">
        <ele>188.755</ele>
        <time>2021-11-24T09:45:54Z</time>
      </trkpt>
      <trkpt lat="46.94572" lon="-0.87999">
        <ele>187.164</ele>
        <time>2021-11-24T09:46:00Z</time>
      </trkpt>
      <trkpt lat="46.94569" lon="-0.87994">
        <ele>189.538</ele>
        <time>2021-11-24T09:46:05Z</time>
      </trkpt>
      <trkpt lat="46.94568" lon="-0.87986">
        <ele>191.366</ele>
        <time>2021-11-24T09:46:11Z</time>
      </trkpt>
      <trkpt lat="46.94566" lon="-0.87977">
        <ele>191.614</ele>
        <time>2021-11-24T09:46:17Z</time>
      </trkpt>
      <trkpt lat="46.94565" lon="-0.87969">
        <ele>193.33</ele>
        <time>2021-11-24T09:46:23Z</time>
      </trkpt>
      <trkpt lat="46.94565" lon="-0.87963">
        <ele>193.821</ele>
        <time>2021-11-24T09:46:28Z</time>
      </trkpt>
      <trkpt lat="46.94564" lon="-0.87954">
        <ele>195.12</ele>
        <time>2021-11-24T09:46:34Z</time>
      </trkpt>
      <trkpt lat="46.94562" lon="-0.87945">
        <ele>196.177</ele>
        <time>2021-11-24T09:46:40Z</time>
      </trkpt>
      <trkpt lat="46.9456" lon="-0.87936">
        <ele>197.692</ele>
        <time>2021-11-24T09:46:46Z</time>
      </trkpt>
      <trkpt lat="46.94557" lon="-0.87926">
        <ele>198.047</ele>
        <time>2021-11-24T09:46:52Z</time>
      </trkpt>
      <trkpt lat="46.94554" lon="-0.87918">
        <ele>199.056</ele>
        <time>2021-11-24T09:46:58Z</time>
      </trkpt>
      <trkpt lat="46.9455" lon="-0.87913">
        <ele>199.481</ele>
        <time>2021-11-24T09:47:03Z</time>
      </trkpt>
      <trkpt lat="46.94543" lon="-0.87911">
        <ele>200.767</ele>
        <time>2021-11-24T09:47:09Z</time>
      </trkpt>
      <trkpt lat="46.94536" lon="-0.87906">
        <ele>201.228</ele>
        <time>2021-11-24T09:47:15Z</time>
      </trkpt>
      <trkpt lat="46.94531" lon="-0.87898">
        <ele>201.834</ele>
        <time>2021-11-24T09:47:21Z</time>
      </trkpt>
      <trkpt lat="46.94524" lon="-0.87894">
        <ele>202.459</ele>
        <time>2021-11-24T09:47:27Z</time>
      </trkpt>
      <trkpt lat="46.94521" lon="-0.87889">
        <ele>202.642</ele>
        <time>2021-11-24T09:47:32Z</time>
      </trkpt>
      <trkpt lat="46.9452" lon="-0.87879">
        <ele>203.705</ele>
        <time>2021-11-24T09:47:38Z</time>
      </trkpt>
      <trkpt lat="46.9452" lon="-0.87871">
        <ele>204.488</ele>
        <time>2021-11-24T09:47:43Z</time>
      </trkpt>
      <trkpt lat="46.94523" lon="-0.87862">
        <ele>205.13</ele>
        <time>2021-11-24T09:47:49Z</time>
      </trkpt>
      <trkpt lat="46.94529" lon="-0.87853">
        <ele>205.208</ele>
        <time>2021-11-24T09:47:55Z</time>
      </trkpt>
      <trkpt lat="46.94534" lon="-0.87848">
        <ele>206.242</ele>
        <time>2021-11-24T09:48:01Z</time>
      </trkpt>
      <trkpt lat="46.94537" lon="-0.87848">
        <ele>206.764</ele>
        <time>2021-11-24T09:48:07Z</time>
      </trkpt>
      <trkpt lat="46.94538" lon="-0.87849">
        <ele>206.905</ele>
        <time>2021-11-24T09:48:18Z</time>
      </trkpt>
      <trkpt lat="46.94537" lon="-0.87849">
        <ele>207.171</ele>
        <time>2021-11-24T09:48:24Z</time>
      </trkpt>
      <trkpt lat="46.94538" lon="-0.87849">
        <ele>207.343</ele>
        <time>2021-11-24T09:48:29Z</time>
      </trkpt>
      <trkpt lat="46.94539" lon="-0.87849">
        <ele>207.611</ele>
        <time>2021-11-24T09:48:35Z</time>
      </trkpt>
      <trkpt lat="46.9454" lon="-0.87849">
        <ele>207.524</ele>
        <time>2021-11-24T09:49:36Z</time>
      </trkpt>
      <trkpt lat="46.94542" lon="-0.87848">
        <ele>207.466</ele>
        <time>2021-11-24T09:49:42Z</time>
      </trkpt>
      <trkpt lat="46.94545" lon="-0.87843">
        <ele>207.485</ele>
        <time>2021-11-24T09:49:48Z</time>
      </trkpt>
      <trkpt lat="46.94548" lon="-0.87838">
        <ele>207.465</ele>
        <time>2021-11-24T09:50:11Z</time>
      </trkpt>
      <trkpt lat="46.94551" lon="-0.87829">
        <ele>207.152</ele>
        <time>2021-11-24T09:50:17Z</time>
      </trkpt>
      <trkpt lat="46.94553" lon="-0.87825">
        <ele>207.217</ele>
        <time>2021-11-24T09:50:22Z</time>
      </trkpt>
      <trkpt lat="46.94553" lon="-0.87826">
        <ele>207.282</ele>
        <time>2021-11-24T09:50:28Z</time>
      </trkpt>
      <trkpt lat="46.94554" lon="-0.87822">
        <ele>207.307</ele>
        <time>2021-11-24T09:50:34Z</time>
      </trkpt>
      <trkpt lat="46.94556" lon="-0.87813">
        <ele>208.016</ele>
        <time>2021-11-24T09:50:40Z</time>
      </trkpt>
      <trkpt lat="46.94558" lon="-0.87807">
        <ele>208.229</ele>
        <time>2021-11-24T09:50:45Z</time>
      </trkpt>
      <trkpt lat="46.94559" lon="-0.87804">
        <ele>208.762</ele>
        <time>2021-11-24T09:50:50Z</time>
      </trkpt>
      <trkpt lat="46.94561" lon="-0.87798">
        <ele>207.742</ele>
        <time>2021-11-24T09:50:56Z</time>
      </trkpt>
      <trkpt lat="46.94564" lon="-0.87793">
        <ele>209.072</ele>
        <time>2021-11-24T09:51:01Z</time>
      </trkpt>
      <trkpt lat="46.94566" lon="-0.87791">
        <ele>208.854</ele>
        <time>2021-11-24T09:51:07Z</time>
      </trkpt>
      <trkpt lat="46.94569" lon="-0.87784">
        <ele>208.783</ele>
        <time>2021-11-24T09:51:13Z</time>
      </trkpt>
      <trkpt lat="46.94574" lon="-0.87778">
        <ele>209.95</ele>
        <time>2021-11-24T09:51:18Z</time>
      </trkpt>
      <trkpt lat="46.94574" lon="-0.87776">
        <ele>158.8</ele>
      </trkpt>
      <trkpt lat="46.94576" lon="-0.8777">
        <ele>211.045</ele>
        <time>2021-11-24T09:53:41Z</time>
      </trkpt>
      <trkpt lat="46.94576" lon="-0.87761">
        <ele>211.518</ele>
        <time>2021-11-24T09:53:46Z</time>
      </trkpt>
      <trkpt lat="46.94575" lon="-0.87752">
        <ele>211.704</ele>
        <time>2021-11-24T09:53:52Z</time>
      </trkpt>
      <trkpt lat="46.94578" lon="-0.87743">
        <ele>212.198</ele>
        <time>2021-11-24T09:53:58Z</time>
      </trkpt>
      <trkpt lat="46.94582" lon="-0.87739">
        <ele>212.869</ele>
        <time>2021-11-24T09:54:04Z</time>
      </trkpt>
      <trkpt lat="46.94583" lon="-0.87739">
        <ele>213.031</ele>
        <time>2021-11-24T09:54:09Z</time>
      </trkpt>
      <trkpt lat="46.94585" lon="-0.87737">
        <ele>213.2</ele>
        <time>2021-11-24T09:54:15Z</time>
      </trkpt>
      <trkpt lat="46.94588" lon="-0.87732">
        <ele>213.64</ele>
        <time>2021-11-24T09:54:21Z</time>
      </trkpt>
      <trkpt lat="46.94587" lon="-0.87723">
        <ele>213.939</ele>
        <time>2021-11-24T09:54:27Z</time>
      </trkpt>
      <trkpt lat="46.94585" lon="-0.87715">
        <ele>214.537</ele>
        <time>2021-11-24T09:54:32Z</time>
      </trkpt>
      <trkpt lat="46.94582" lon="-0.87706">
        <ele>214.408</ele>
        <time>2021-11-24T09:54:37Z</time>
      </trkpt>
      <trkpt lat="46.94576" lon="-0.87697">
        <ele>214.808</ele>
        <time>2021-11-24T09:54:43Z</time>
      </trkpt>
      <trkpt lat="46.94572" lon="-0.87687">
        <ele>215.133</ele>
        <time>2021-11-24T09:54:49Z</time>
      </trkpt>
      <trkpt lat="46.94569" lon="-0.87678">
        <ele>214.581</ele>
        <time>2021-11-24T09:54:55Z</time>
      </trkpt>
      <trkpt lat="46.94567" lon="-0.8767">
        <ele>214.254</ele>
        <time>2021-11-24T09:55:00Z</time>
      </trkpt>
      <trkpt lat="46.94563" lon="-0.8766">
        <ele>213.806</ele>
        <time>2021-11-24T09:55:06Z</time>
      </trkpt>
      <trkpt lat="46.94559" lon="-0.87649">
        <ele>214.068</ele>
        <time>2021-11-24T09:55:12Z</time>
      </trkpt>
      <trkpt lat="46.94555" lon="-0.87642">
        <ele>213.524</ele>
        <time>2021-11-24T09:55:18Z</time>
      </trkpt>
      <trkpt lat="46.9455" lon="-0.87647">
        <ele>213.692</ele>
        <time>2021-11-24T09:55:23Z</time>
      </trkpt>
      <trkpt lat="46.94544" lon="-0.87655">
        <ele>213.519</ele>
        <time>2021-11-24T09:55:29Z</time>
      </trkpt>
      <trkpt lat="46.9454" lon="-0.87664">
        <ele>213.98</ele>
        <time>2021-11-24T09:55:34Z</time>
      </trkpt>
      <trkpt lat="46.94536" lon="-0.87671">
        <ele>213.851</ele>
        <time>2021-11-24T09:55:39Z</time>
      </trkpt>
      <trkpt lat="46.9453" lon="-0.87679">
        <ele>213.528</ele>
        <time>2021-11-24T09:55:45Z</time>
      </trkpt>
      <trkpt lat="46.94525" lon="-0.87685">
        <ele>213.605</ele>
        <time>2021-11-24T09:55:50Z</time>
      </trkpt>
      <trkpt lat="46.94519" lon="-0.8769">
        <ele>213.649</ele>
        <time>2021-11-24T09:55:55Z</time>
      </trkpt>
      <trkpt lat="46.94512" lon="-0.87698">
        <ele>213.656</ele>
        <time>2021-11-24T09:56:01Z</time>
      </trkpt>
      <trkpt lat="46.94505" lon="-0.87706">
        <ele>212.972</ele>
        <time>2021-11-24T09:56:07Z</time>
      </trkpt>
      <trkpt lat="46.945" lon="-0.87712">
        <ele>212.926</ele>
        <time>2021-11-24T09:56:12Z</time>
      </trkpt>
      <trkpt lat="46.94495" lon="-0.87718">
        <ele>212.579</ele>
        <time>2021-11-24T09:56:17Z</time>
      </trkpt>
      <trkpt lat="46.9449" lon="-0.87726">
        <ele>211.734</ele>
        <time>2021-11-24T09:56:23Z</time>
      </trkpt>
      <trkpt lat="46.94483" lon="-0.87734">
        <ele>211.345</ele>
        <time>2021-11-24T09:56:29Z</time>
      </trkpt>
      <trkpt lat="46.94476" lon="-0.87738">
        <ele>210.652</ele>
        <time>2021-11-24T09:56:34Z</time>
      </trkpt>
      <trkpt lat="46.94467" lon="-0.87737">
        <ele>210.242</ele>
        <time>2021-11-24T09:56:40Z</time>
      </trkpt>
      <trkpt lat="46.94461" lon="-0.87739">
        <ele>208.934</ele>
        <time>2021-11-24T09:56:45Z</time>
      </trkpt>
      <trkpt lat="46.94457" lon="-0.87746">
        <ele>208.231</ele>
        <time>2021-11-24T09:56:50Z</time>
      </trkpt>
      <trkpt lat="46.94454" lon="-0.87755">
        <ele>207.665</ele>
        <time>2021-11-24T09:56:55Z</time>
      </trkpt>
      <trkpt lat="46.94447" lon="-0.87759">
        <ele>206.025</ele>
        <time>2021-11-24T09:57:01Z</time>
      </trkpt>
      <trkpt lat="46.94439" lon="-0.87757">
        <ele>205.692</ele>
        <time>2021-11-24T09:57:07Z</time>
      </trkpt>
      <trkpt lat="46.94432" lon="-0.87755">
        <ele>204.303</ele>
        <time>2021-11-24T09:57:12Z</time>
      </trkpt>
      <trkpt lat="46.94425" lon="-0.87756">
        <ele>203.62</ele>
        <time>2021-11-24T09:57:17Z</time>
      </trkpt>
      <trkpt lat="46.94419" lon="-0.87759">
        <ele>202.977</ele>
        <time>2021-11-24T09:57:22Z</time>
      </trkpt>
      <trkpt lat="46.94412" lon="-0.87764">
        <ele>202.3</ele>
        <time>2021-11-24T09:57:28Z</time>
      </trkpt>
      <trkpt lat="46.94408" lon="-0.8777">
        <ele>201.307</ele>
        <time>2021-11-24T09:57:33Z</time>
      </trkpt>
      <trkpt lat="46.94405" lon="-0.87779">
        <ele>200.097</ele>
        <time>2021-11-24T09:57:39Z</time>
      </trkpt>
      <trkpt lat="46.94404" lon="-0.87787">
        <ele>199.202</ele>
        <time>2021-11-24T09:57:44Z</time>
      </trkpt>
      <trkpt lat="46.944" lon="-0.878">
        <ele>198.198</ele>
        <time>2021-11-24T09:57:50Z</time>
      </trkpt>
      <trkpt lat="46.94397" lon="-0.8781">
        <ele>196.207</ele>
        <time>2021-11-24T09:57:56Z</time>
      </trkpt>
      <trkpt lat="46.94394" lon="-0.87819">
        <ele>195.542</ele>
        <time>2021-11-24T09:58:01Z</time>
      </trkpt>
      <trkpt lat="46.94391" lon="-0.87828">
        <ele>194.806</ele>
        <time>2021-11-24T09:58:06Z</time>
      </trkpt>
      <trkpt lat="46.94387" lon="-0.87838">
        <ele>193.782</ele>
        <time>2021-11-24T09:58:11Z</time>
      </trkpt>
      <trkpt lat="46.94379" lon="-0.87847">
        <ele>192.646</ele>
        <time>2021-11-24T09:58:17Z</time>
      </trkpt>
      <trkpt lat="46.94371" lon="-0.8785">
        <ele>191.589</ele>
        <time>2021-11-24T09:58:23Z</time>
      </trkpt>
      <trkpt lat="46.94363" lon="-0.87851">
        <ele>190.089</ele>
        <time>2021-11-24T09:58:29Z</time>
      </trkpt>
      <trkpt lat="46.94355" lon="-0.87852">
        <ele>188.723</ele>
        <time>2021-11-24T09:58:35Z</time>
      </trkpt>
      <trkpt lat="46.9435" lon="-0.87853">
        <ele>187.811</ele>
        <time>2021-11-24T09:58:40Z</time>
      </trkpt>
      <trkpt lat="46.94342" lon="-0.87854">
        <ele>186.479</ele>
        <time>2021-11-24T09:58:46Z</time>
      </trkpt>
      <trkpt lat="46.94334" lon="-0.87852">
        <ele>185.871</ele>
        <time>2021-11-24T09:58:51Z</time>
      </trkpt>
      <trkpt lat="46.94329" lon="-0.87848">
        <ele>185.077</ele>
        <time>2021-11-24T09:58:56Z</time>
      </trkpt>
      <trkpt lat="46.94323" lon="-0.87844">
        <ele>184.3</ele>
        <time>2021-11-24T09:59:01Z</time>
      </trkpt>
      <trkpt lat="46.94315" lon="-0.8784">
        <ele>183.23</ele>
        <time>2021-11-24T09:59:07Z</time>
      </trkpt>
      <trkpt lat="46.94309" lon="-0.87837">
        <ele>183.143</ele>
        <time>2021-11-24T09:59:12Z</time>
      </trkpt>
      <trkpt lat="46.94302" lon="-0.87833">
        <ele>182.93</ele>
        <time>2021-11-24T09:59:17Z</time>
      </trkpt>
      <trkpt lat="46.94294" lon="-0.8783">
        <ele>181.651</ele>
        <time>2021-11-24T09:59:23Z</time>
      </trkpt>
      <trkpt lat="46.94287" lon="-0.87828">
        <ele>181.121</ele>
        <time>2021-11-24T09:59:28Z</time>
      </trkpt>
      <trkpt lat="46.9428" lon="-0.87825">
        <ele>180.124</ele>
        <time>2021-11-24T09:59:34Z</time>
      </trkpt>
      <trkpt lat="46.94274" lon="-0.8782">
        <ele>179.889</ele>
        <time>2021-11-24T09:59:39Z</time>
      </trkpt>
      <trkpt lat="46.94267" lon="-0.87816">
        <ele>178.691</ele>
        <time>2021-11-24T09:59:45Z</time>
      </trkpt>
      <trkpt lat="46.94259" lon="-0.87812">
        <ele>177.587</ele>
        <time>2021-11-24T09:59:50Z</time>
      </trkpt>
      <trkpt lat="46.94251" lon="-0.87808">
        <ele>177.032</ele>
        <time>2021-11-24T09:59:56Z</time>
      </trkpt>
      <trkpt lat="46.94244" lon="-0.87803">
        <ele>176.366</ele>
        <time>2021-11-24T10:00:02Z</time>
      </trkpt>
      <trkpt lat="46.94238" lon="-0.87797">
        <ele>176.124</ele>
        <time>2021-11-24T10:00:07Z</time>
      </trkpt>
      <trkpt lat="46.94232" lon="-0.8779">
        <ele>176.201</ele>
        <time>2021-11-24T10:00:13Z</time>
      </trkpt>
      <trkpt lat="46.94227" lon="-0.87784">
        <ele>176.205</ele>
        <time>2021-11-24T10:00:18Z</time>
      </trkpt>
      <trkpt lat="46.9422" lon="-0.87779">
        <ele>175.881</ele>
        <time>2021-11-24T10:00:24Z</time>
      </trkpt>
      <trkpt lat="46.94213" lon="-0.87776">
        <ele>175.684</ele>
        <time>2021-11-24T10:00:30Z</time>
      </trkpt>
      <trkpt lat="46.94207" lon="-0.87771">
        <ele>175.825</ele>
        <time>2021-11-24T10:00:36Z</time>
      </trkpt>
      <trkpt lat="46.942" lon="-0.87764">
        <ele>175.775</ele>
        <time>2021-11-24T10:00:41Z</time>
      </trkpt>
      <trkpt lat="46.94194" lon="-0.87755">
        <ele>174.877</ele>
        <time>2021-11-24T10:00:47Z</time>
      </trkpt>
      <trkpt lat="46.94189" lon="-0.87747">
        <ele>175.003</ele>
        <time>2021-11-24T10:00:53Z</time>
      </trkpt>
      <trkpt lat="46.94183" lon="-0.8774">
        <ele>174.926</ele>
        <time>2021-11-24T10:00:58Z</time>
      </trkpt>
      <trkpt lat="46.94177" lon="-0.87733">
        <ele>174.72</ele>
        <time>2021-11-24T10:01:04Z</time>
      </trkpt>
      <trkpt lat="46.94172" lon="-0.87725">
        <ele>174.881</ele>
        <time>2021-11-24T10:01:09Z</time>
      </trkpt>
      <trkpt lat="46.94168" lon="-0.8772">
        <ele>174.612</ele>
        <time>2021-11-24T10:01:14Z</time>
      </trkpt>
      <trkpt lat="46.94162" lon="-0.87711">
        <ele>174.394</ele>
        <time>2021-11-24T10:01:20Z</time>
      </trkpt>
      <trkpt lat="46.94157" lon="-0.87706">
        <ele>173.839</ele>
        <time>2021-11-24T10:01:25Z</time>
      </trkpt>
      <trkpt lat="46.94151" lon="-0.87698">
        <ele>173.401</ele>
        <time>2021-11-24T10:01:31Z</time>
      </trkpt>
      <trkpt lat="46.94145" lon="-0.87691">
        <ele>173.719</ele>
        <time>2021-11-24T10:01:37Z</time>
      </trkpt>
      <trkpt lat="46.94143" lon="-0.87689">
        <ele>174.334</ele>
        <time>2021-11-24T10:01:42Z</time>
      </trkpt>
      <trkpt lat="46.94145" lon="-0.87689">
        <ele>173.824</ele>
        <time>2021-11-24T10:01:47Z</time>
      </trkpt>
      <trkpt lat="46.94146" lon="-0.8769">
        <ele>174.034</ele>
        <time>2021-11-24T10:01:52Z</time>
      </trkpt>
      <trkpt lat="46.94156" lon="-0.87696">
        <ele>174.055</ele>
        <time>2021-11-24T10:01:58Z</time>
      </trkpt>
      <trkpt lat="46.94163" lon="-0.87697">
        <ele>175.965</ele>
        <time>2021-11-24T10:02:04Z</time>
      </trkpt>
      <trkpt lat="46.94166" lon="-0.87694">
        <ele>177.45</ele>
        <time>2021-11-24T10:02:09Z</time>
      </trkpt>
      <trkpt lat="46.94174" lon="-0.87702">
        <ele>177.981</ele>
        <time>2021-11-24T10:02:15Z</time>
      </trkpt>
      <trkpt lat="46.9418" lon="-0.87704">
        <ele>178.723</ele>
        <time>2021-11-24T10:02:21Z</time>
      </trkpt>
      <trkpt lat="46.94188" lon="-0.87706">
        <ele>179.063</ele>
        <time>2021-11-24T10:02:27Z</time>
      </trkpt>
      <trkpt lat="46.94193" lon="-0.87713">
        <ele>180.149</ele>
        <time>2021-11-24T10:02:33Z</time>
      </trkpt>
      <trkpt lat="46.94199" lon="-0.87716">
        <ele>180.342</ele>
        <time>2021-11-24T10:02:39Z</time>
      </trkpt>
      <trkpt lat="46.94202" lon="-0.87718">
        <ele>181.068</ele>
        <time>2021-11-24T10:02:45Z</time>
      </trkpt>
      <trkpt lat="46.94203" lon="-0.87718">
        <ele>181.462</ele>
        <time>2021-11-24T10:02:50Z</time>
      </trkpt>
      <trkpt lat="46.94206" lon="-0.87723">
        <ele>181.69</ele>
        <time>2021-11-24T10:02:56Z</time>
      </trkpt>
      <trkpt lat="46.94214" lon="-0.87727">
        <ele>181.995</ele>
        <time>2021-11-24T10:03:01Z</time>
      </trkpt>
      <trkpt lat="46.94221" lon="-0.87722">
        <ele>183.04</ele>
        <time>2021-11-24T10:03:07Z</time>
      </trkpt>
      <trkpt lat="46.94223" lon="-0.87716">
        <ele>183.637</ele>
        <time>2021-11-24T10:03:13Z</time>
      </trkpt>
      <trkpt lat="46.9422" lon="-0.87716">
        <ele>185.176</ele>
        <time>2021-11-24T10:03:19Z</time>
      </trkpt>
      <trkpt lat="46.94217" lon="-0.87713">
        <ele>185.37</ele>
        <time>2021-11-24T10:03:24Z</time>
      </trkpt>
      <trkpt lat="46.94213" lon="-0.8771">
        <ele>187.408</ele>
        <time>2021-11-24T10:03:29Z</time>
      </trkpt>
      <trkpt lat="46.94211" lon="-0.87703">
        <ele>188.75</ele>
        <time>2021-11-24T10:03:34Z</time>
      </trkpt>
      <trkpt lat="46.94214" lon="-0.87697">
        <ele>188.257</ele>
        <time>2021-11-24T10:03:39Z</time>
      </trkpt>
      <trkpt lat="46.94217" lon="-0.87695">
        <ele>188.53</ele>
        <time>2021-11-24T10:03:45Z</time>
      </trkpt>
      <trkpt lat="46.94223" lon="-0.87695">
        <ele>188.235</ele>
        <time>2021-11-24T10:03:51Z</time>
      </trkpt>
      <trkpt lat="46.94227" lon="-0.87696">
        <ele>189.306</ele>
        <time>2021-11-24T10:03:56Z</time>
      </trkpt>
      <trkpt lat="46.94229" lon="-0.87693">
        <ele>191.172</ele>
        <time>2021-11-24T10:04:02Z</time>
      </trkpt>
      <trkpt lat="46.94225" lon="-0.8769">
        <ele>191.079</ele>
        <time>2021-11-24T10:04:08Z</time>
      </trkpt>
      <trkpt lat="46.94221" lon="-0.87689">
        <ele>191.782</ele>
        <time>2021-11-24T10:04:13Z</time>
      </trkpt>
      <trkpt lat="46.94216" lon="-0.87687">
        <ele>192.613</ele>
        <time>2021-11-24T10:04:18Z</time>
      </trkpt>
      <trkpt lat="46.94211" lon="-0.87684">
        <ele>191.325</ele>
        <time>2021-11-24T10:04:23Z</time>
      </trkpt>
      <trkpt lat="46.94205" lon="-0.87678">
        <ele>192.492</ele>
        <time>2021-11-24T10:04:29Z</time>
      </trkpt>
      <trkpt lat="46.942" lon="-0.87671">
        <ele>193.038</ele>
        <time>2021-11-24T10:04:35Z</time>
      </trkpt>
      <trkpt lat="46.94195" lon="-0.87667">
        <ele>192.614</ele>
        <time>2021-11-24T10:04:40Z</time>
      </trkpt>
      <trkpt lat="46.9419" lon="-0.87664">
        <ele>192.64</ele>
        <time>2021-11-24T10:04:46Z</time>
      </trkpt>
      <trkpt lat="46.94182" lon="-0.87661">
        <ele>192.057</ele>
        <time>2021-11-24T10:04:52Z</time>
      </trkpt>
      <trkpt lat="46.94175" lon="-0.87656">
        <ele>192.071</ele>
        <time>2021-11-24T10:04:58Z</time>
      </trkpt>
      <trkpt lat="46.94173" lon="-0.87653">
        <ele>191.563</ele>
        <time>2021-11-24T10:05:03Z</time>
      </trkpt>
      <trkpt lat="46.94174" lon="-0.87647">
        <ele>194.974</ele>
        <time>2021-11-24T10:05:09Z</time>
      </trkpt>
      <trkpt lat="46.94178" lon="-0.87644">
        <ele>195.217</ele>
        <time>2021-11-24T10:05:14Z</time>
      </trkpt>
      <trkpt lat="46.94184" lon="-0.87642">
        <ele>195.552</ele>
        <time>2021-11-24T10:05:20Z</time>
      </trkpt>
      <trkpt lat="46.94188" lon="-0.8764">
        <ele>196.973</ele>
        <time>2021-11-24T10:05:25Z</time>
      </trkpt>
      <trkpt lat="46.94193" lon="-0.8764">
        <ele>197.642</ele>
        <time>2021-11-24T10:05:31Z</time>
      </trkpt>
      <trkpt lat="46.94194" lon="-0.8764">
        <ele>198.008</ele>
        <time>2021-11-24T10:05:37Z</time>
      </trkpt>
      <trkpt lat="46.94198" lon="-0.87642">
        <ele>197.903</ele>
        <time>2021-11-24T10:05:43Z</time>
      </trkpt>
      <trkpt lat="46.94203" lon="-0.87645">
        <ele>195.754</ele>
        <time>2021-11-24T10:05:48Z</time>
      </trkpt>
      <trkpt lat="46.94208" lon="-0.87646">
        <ele>196.059</ele>
        <time>2021-11-24T10:05:53Z</time>
      </trkpt>
      <trkpt lat="46.94211" lon="-0.87649">
        <ele>197.566</ele>
        <time>2021-11-24T10:05:59Z</time>
      </trkpt>
      <trkpt lat="46.94218" lon="-0.87655">
        <ele>197.459</ele>
        <time>2021-11-24T10:06:05Z</time>
      </trkpt>
      <trkpt lat="46.94224" lon="-0.87658">
        <ele>197.69</ele>
        <time>2021-11-24T10:06:11Z</time>
      </trkpt>
      <trkpt lat="46.9423" lon="-0.87664">
        <ele>198.253</ele>
        <time>2021-11-24T10:06:17Z</time>
      </trkpt>
      <trkpt lat="46.94235" lon="-0.87667">
        <ele>198.31</ele>
        <time>2021-11-24T10:06:22Z</time>
      </trkpt>
      <trkpt lat="46.9424" lon="-0.87668">
        <ele>198.648</ele>
        <time>2021-11-24T10:06:27Z</time>
      </trkpt>
      <trkpt lat="46.94246" lon="-0.87672">
        <ele>198.659</ele>
        <time>2021-11-24T10:06:33Z</time>
      </trkpt>
      <trkpt lat="46.9425" lon="-0.87672">
        <ele>198.912</ele>
        <time>2021-11-24T10:06:38Z</time>
      </trkpt>
      <trkpt lat="46.94252" lon="-0.87667">
        <ele>200.001</ele>
        <time>2021-11-24T10:06:44Z</time>
      </trkpt>
      <trkpt lat="46.94255" lon="-0.87662">
        <ele>201.112</ele>
        <time>2021-11-24T10:06:49Z</time>
      </trkpt>
      <trkpt lat="46.94259" lon="-0.87659">
        <ele>202.476</ele>
        <time>2021-11-24T10:06:55Z</time>
      </trkpt>
      <trkpt lat="46.94261" lon="-0.8766">
        <ele>204.144</ele>
        <time>2021-11-24T10:07:01Z</time>
      </trkpt>
      <trkpt lat="46.94266" lon="-0.87657">
        <ele>204.151</ele>
        <time>2021-11-24T10:07:06Z</time>
      </trkpt>
      <trkpt lat="46.94264" lon="-0.87653">
        <ele>204.898</ele>
        <time>2021-11-24T10:07:12Z</time>
      </trkpt>
      <trkpt lat="46.94263" lon="-0.87648">
        <ele>205.582</ele>
        <time>2021-11-24T10:07:18Z</time>
      </trkpt>
      <trkpt lat="46.94266" lon="-0.87644">
        <ele>206.369</ele>
        <time>2021-11-24T10:07:23Z</time>
      </trkpt>
      <trkpt lat="46.94269" lon="-0.87638">
        <ele>206.584</ele>
        <time>2021-11-24T10:07:28Z</time>
      </trkpt>
      <trkpt lat="46.94273" lon="-0.87634">
        <ele>207.114</ele>
        <time>2021-11-24T10:07:34Z</time>
      </trkpt>
      <trkpt lat="46.94278" lon="-0.87635">
        <ele>208.567</ele>
        <time>2021-11-24T10:07:39Z</time>
      </trkpt>
      <trkpt lat="46.94285" lon="-0.87638">
        <ele>211.332</ele>
        <time>2021-11-24T10:07:45Z</time>
      </trkpt>
      <trkpt lat="46.9429" lon="-0.87643">
        <ele>210.948</ele>
        <time>2021-11-24T10:07:50Z</time>
      </trkpt>
      <trkpt lat="46.94295" lon="-0.8765">
        <ele>211.351</ele>
        <time>2021-11-24T10:07:56Z</time>
      </trkpt>
      <trkpt lat="46.94299" lon="-0.87653">
        <ele>211.245</ele>
        <time>2021-11-24T10:08:01Z</time>
      </trkpt>
      <trkpt lat="46.94304" lon="-0.87654">
        <ele>211.184</ele>
        <time>2021-11-24T10:08:06Z</time>
      </trkpt>
      <trkpt lat="46.94312" lon="-0.87654">
        <ele>215.406</ele>
        <time>2021-11-24T10:08:12Z</time>
      </trkpt>
      <trkpt lat="46.94315" lon="-0.8765">
        <ele>213.515</ele>
        <time>2021-11-24T10:08:18Z</time>
      </trkpt>
      <trkpt lat="46.94319" lon="-0.87647">
        <ele>212.928</ele>
        <time>2021-11-24T10:08:23Z</time>
      </trkpt>
      <trkpt lat="46.94321" lon="-0.87639">
        <ele>212.89</ele>
        <time>2021-11-24T10:08:28Z</time>
      </trkpt>
      <trkpt lat="46.94322" lon="-0.87633">
        <ele>213.11</ele>
        <time>2021-11-24T10:08:33Z</time>
      </trkpt>
      <trkpt lat="46.94319" lon="-0.87628">
        <ele>214.078</ele>
        <time>2021-11-24T10:08:39Z</time>
      </trkpt>
      <trkpt lat="46.94317" lon="-0.8762">
        <ele>215.508</ele>
        <time>2021-11-24T10:08:45Z</time>
      </trkpt>
      <trkpt lat="46.94318" lon="-0.87612">
        <ele>215.878</ele>
        <time>2021-11-24T10:08:50Z</time>
      </trkpt>
      <trkpt lat="46.94321" lon="-0.87604">
        <ele>216.377</ele>
        <time>2021-11-24T10:08:56Z</time>
      </trkpt>
      <trkpt lat="46.94323" lon="-0.87597">
        <ele>217.226</ele>
        <time>2021-11-24T10:09:01Z</time>
      </trkpt>
      <trkpt lat="46.94326" lon="-0.87593">
        <ele>217.999</ele>
        <time>2021-11-24T10:09:06Z</time>
      </trkpt>
      <trkpt lat="46.9433" lon="-0.87586">
        <ele>219.522</ele>
        <time>2021-11-24T10:09:11Z</time>
      </trkpt>
      <trkpt lat="46.94335" lon="-0.87583">
        <ele>219.885</ele>
        <time>2021-11-24T10:09:17Z</time>
      </trkpt>
      <trkpt lat="46.94339" lon="-0.87585">
        <ele>220.437</ele>
        <time>2021-11-24T10:09:22Z</time>
      </trkpt>
      <trkpt lat="46.94344" lon="-0.87588">
        <ele>219.062</ele>
        <time>2021-11-24T10:09:27Z</time>
      </trkpt>
      <trkpt lat="46.94348" lon="-0.87594">
        <ele>218.955</ele>
        <time>2021-11-24T10:09:33Z</time>
      </trkpt>
      <trkpt lat="46.94353" lon="-0.87602">
        <ele>218.728</ele>
        <time>2021-11-24T10:09:39Z</time>
      </trkpt>
      <trkpt lat="46.94359" lon="-0.87608">
        <ele>217.434</ele>
        <time>2021-11-24T10:09:45Z</time>
      </trkpt>
      <trkpt lat="46.94364" lon="-0.87616">
        <ele>217.373</ele>
        <time>2021-11-24T10:09:51Z</time>
      </trkpt>
      <trkpt lat="46.94366" lon="-0.87625">
        <ele>216.657</ele>
        <time>2021-11-24T10:09:57Z</time>
      </trkpt>
      <trkpt lat="46.94369" lon="-0.87633">
        <ele>215.526</ele>
        <time>2021-11-24T10:10:03Z</time>
      </trkpt>
      <trkpt lat="46.94372" lon="-0.87643">
        <ele>214.832</ele>
        <time>2021-11-24T10:10:08Z</time>
      </trkpt>
      <trkpt lat="46.94372" lon="-0.87652">
        <ele>214.717</ele>
        <time>2021-11-24T10:10:13Z</time>
      </trkpt>
      <trkpt lat="46.94374" lon="-0.87663">
        <ele>213.935</ele>
        <time>2021-11-24T10:10:19Z</time>
      </trkpt>
      <trkpt lat="46.94378" lon="-0.87673">
        <ele>212.389</ele>
        <time>2021-11-24T10:10:25Z</time>
      </trkpt>
      <trkpt lat="46.94381" lon="-0.87679">
        <ele>212.245</ele>
        <time>2021-11-24T10:10:30Z</time>
      </trkpt>
      <trkpt lat="46.94381" lon="-0.87687">
        <ele>210.929</ele>
        <time>2021-11-24T10:10:35Z</time>
      </trkpt>
      <trkpt lat="46.9438" lon="-0.87698">
        <ele>210.159</ele>
        <time>2021-11-24T10:10:41Z</time>
      </trkpt>
      <trkpt lat="46.9438" lon="-0.87708">
        <ele>209.196</ele>
        <time>2021-11-24T10:10:47Z</time>
      </trkpt>
      <trkpt lat="46.9438" lon="-0.87719">
        <ele>208.496</ele>
        <time>2021-11-24T10:10:53Z</time>
      </trkpt>
      <trkpt lat="46.94376" lon="-0.87725">
        <ele>207.57</ele>
        <time>2021-11-24T10:10:59Z</time>
      </trkpt>
      <trkpt lat="46.94371" lon="-0.87728">
        <ele>207.248</ele>
        <time>2021-11-24T10:11:04Z</time>
      </trkpt>
      <trkpt lat="46.94367" lon="-0.87732">
        <ele>207</ele>
        <time>2021-11-24T10:11:10Z</time>
      </trkpt>
      <trkpt lat="46.94368" lon="-0.8774">
        <ele>206.195</ele>
        <time>2021-11-24T10:11:16Z</time>
      </trkpt>
      <trkpt lat="46.94367" lon="-0.87749">
        <ele>205.845</ele>
        <time>2021-11-24T10:11:22Z</time>
      </trkpt>
      <trkpt lat="46.94365" lon="-0.87756">
        <ele>204.566</ele>
        <time>2021-11-24T10:11:28Z</time>
      </trkpt>
      <trkpt lat="46.94367" lon="-0.87764">
        <ele>203.509</ele>
        <time>2021-11-24T10:11:33Z</time>
      </trkpt>
      <trkpt lat="46.94368" lon="-0.87771">
        <ele>202.098</ele>
        <time>2021-11-24T10:11:38Z</time>
      </trkpt>
      <trkpt lat="46.94367" lon="-0.87778">
        <ele>201.423</ele>
        <time>2021-11-24T10:11:44Z</time>
      </trkpt>
      <trkpt lat="46.94368" lon="-0.87781">
        <ele>199.912</ele>
        <time>2021-11-24T10:11:49Z</time>
      </trkpt>
      <trkpt lat="46.94371" lon="-0.87784">
        <ele>199.071</ele>
        <time>2021-11-24T10:11:55Z</time>
      </trkpt>
      <trkpt lat="46.94378" lon="-0.87786">
        <ele>197.697</ele>
        <time>2021-11-24T10:12:01Z</time>
      </trkpt>
      <trkpt lat="46.94385" lon="-0.87786">
        <ele>197.088</ele>
        <time>2021-11-24T10:12:06Z</time>
      </trkpt>
      <trkpt lat="46.94394" lon="-0.87789">
        <ele>196.649</ele>
        <time>2021-11-24T10:12:12Z</time>
      </trkpt>
      <trkpt lat="46.944" lon="-0.87786">
        <ele>195.77</ele>
        <time>2021-11-24T10:12:18Z</time>
      </trkpt>
      <trkpt lat="46.94403" lon="-0.87778">
        <ele>195.938</ele>
        <time>2021-11-24T10:12:23Z</time>
      </trkpt>
      <trkpt lat="46.94405" lon="-0.87769">
        <ele>196.617</ele>
        <time>2021-11-24T10:12:29Z</time>
      </trkpt>
      <trkpt lat="46.9441" lon="-0.87759">
        <ele>197.256</ele>
        <time>2021-11-24T10:12:35Z</time>
      </trkpt>
      <trkpt lat="46.94413" lon="-0.87756">
        <ele>198.603</ele>
        <time>2021-11-24T10:12:40Z</time>
      </trkpt>
      <trkpt lat="46.94418" lon="-0.87752">
        <ele>199.985</ele>
        <time>2021-11-24T10:12:45Z</time>
      </trkpt>
      <trkpt lat="46.94427" lon="-0.87751">
        <ele>198.872</ele>
        <time>2021-11-24T10:12:51Z</time>
      </trkpt>
      <trkpt lat="46.94436" lon="-0.87762">
        <ele>199.102</ele>
        <time>2021-11-24T10:12:57Z</time>
      </trkpt>
      <trkpt lat="46.94434" lon="-0.8777">
        <ele>199.811</ele>
        <time>2021-11-24T10:13:02Z</time>
      </trkpt>
      <trkpt lat="46.94431" lon="-0.87778">
        <ele>199.99</ele>
        <time>2021-11-24T10:13:07Z</time>
      </trkpt>
      <trkpt lat="46.94427" lon="-0.87786">
        <ele>200.442</ele>
        <time>2021-11-24T10:13:13Z</time>
      </trkpt>
      <trkpt lat="46.94427" lon="-0.87787">
        <ele>200.549</ele>
        <time>2021-11-24T10:13:19Z</time>
      </trkpt>
      <trkpt lat="46.94425" lon="-0.87789">
        <ele>199.069</ele>
        <time>2021-11-24T10:13:24Z</time>
      </trkpt>
      <trkpt lat="46.94421" lon="-0.87797">
        <ele>199.372</ele>
        <time>2021-11-24T10:13:30Z</time>
      </trkpt>
      <trkpt lat="46.94421" lon="-0.87806">
        <ele>198.809</ele>
        <time>2021-11-24T10:13:35Z</time>
      </trkpt>
      <trkpt lat="46.94425" lon="-0.87813">
        <ele>199.079</ele>
        <time>2021-11-24T10:13:41Z</time>
      </trkpt>
      <trkpt lat="46.94431" lon="-0.87817">
        <ele>198.962</ele>
        <time>2021-11-24T10:13:47Z</time>
      </trkpt>
      <trkpt lat="46.94438" lon="-0.87818">
        <ele>199.165</ele>
        <time>2021-11-24T10:13:52Z</time>
      </trkpt>
      <trkpt lat="46.94443" lon="-0.87821">
        <ele>199.957</ele>
        <time>2021-11-24T10:13:57Z</time>
      </trkpt>
      <trkpt lat="46.94451" lon="-0.87826">
        <ele>200.572</ele>
        <time>2021-11-24T10:14:03Z</time>
      </trkpt>
      <trkpt lat="46.94457" lon="-0.8783">
        <ele>201.244</ele>
        <time>2021-11-24T10:14:09Z</time>
      </trkpt>
      <trkpt lat="46.94462" lon="-0.87836">
        <ele>201.307</ele>
        <time>2021-11-24T10:14:14Z</time>
      </trkpt>
      <trkpt lat="46.94469" lon="-0.87841">
        <ele>201.746</ele>
        <time>2021-11-24T10:14:20Z</time>
      </trkpt>
      <trkpt lat="46.94473" lon="-0.87845">
        <ele>202.59</ele>
        <time>2021-11-24T10:14:25Z</time>
      </trkpt>
      <trkpt lat="46.94478" lon="-0.87852">
        <ele>202.197</ele>
        <time>2021-11-24T10:14:30Z</time>
      </trkpt>
      <trkpt lat="46.94483" lon="-0.87864">
        <ele>202.674</ele>
        <time>2021-11-24T10:14:36Z</time>
      </trkpt>
      <trkpt lat="46.94489" lon="-0.87872">
        <ele>202.414</ele>
        <time>2021-11-24T10:14:42Z</time>
      </trkpt>
      <trkpt lat="46.94494" lon="-0.87879">
        <ele>202.585</ele>
        <time>2021-11-24T10:14:48Z</time>
      </trkpt>
      <trkpt lat="46.94501" lon="-0.87881">
        <ele>202.453</ele>
        <time>2021-11-24T10:14:53Z</time>
      </trkpt>
      <trkpt lat="46.94508" lon="-0.87885">
        <ele>201.804</ele>
        <time>2021-11-24T10:14:58Z</time>
      </trkpt>
      <trkpt lat="46.94514" lon="-0.8789">
        <ele>202.783</ele>
        <time>2021-11-24T10:15:04Z</time>
      </trkpt>
      <trkpt lat="46.94519" lon="-0.87887">
        <ele>203.58</ele>
        <time>2021-11-24T10:15:09Z</time>
      </trkpt>
      <trkpt lat="46.9452" lon="-0.87895">
        <ele>203.36</ele>
        <time>2021-11-24T10:15:15Z</time>
      </trkpt>
      <trkpt lat="46.94518" lon="-0.87905">
        <ele>202.749</ele>
        <time>2021-11-24T10:15:20Z</time>
      </trkpt>
      <trkpt lat="46.94517" lon="-0.87915">
        <ele>202.565</ele>
        <time>2021-11-24T10:15:26Z</time>
      </trkpt>
      <trkpt lat="46.94512" lon="-0.87917">
        <ele>202.566</ele>
        <time>2021-11-24T10:15:31Z</time>
      </trkpt>
      <trkpt lat="46.94507" lon="-0.87923">
        <ele>202.746</ele>
        <time>2021-11-24T10:15:37Z</time>
      </trkpt>
      <trkpt lat="46.9451" lon="-0.87932">
        <ele>202.203</ele>
        <time>2021-11-24T10:15:43Z</time>
      </trkpt>
      <trkpt lat="46.94507" lon="-0.87938">
        <ele>201.655</ele>
        <time>2021-11-24T10:15:48Z</time>
      </trkpt>
      <trkpt lat="46.94503" lon="-0.87944">
        <ele>201.039</ele>
        <time>2021-11-24T10:15:53Z</time>
      </trkpt>
      <trkpt lat="46.94503" lon="-0.87952">
        <ele>199.355</ele>
        <time>2021-11-24T10:15:59Z</time>
      </trkpt>
      <trkpt lat="46.94505" lon="-0.87955">
        <ele>199.96</ele>
        <time>2021-11-24T10:16:05Z</time>
      </trkpt>
      <trkpt lat="46.94508" lon="-0.87961">
        <ele>198.482</ele>
        <time>2021-11-24T10:16:10Z</time>
      </trkpt>
      <trkpt lat="46.94513" lon="-0.87966">
        <ele>199.153</ele>
        <time>2021-11-24T10:16:16Z</time>
      </trkpt>
      <trkpt lat="46.9452" lon="-0.87971">
        <ele>198.258</ele>
        <time>2021-11-24T10:16:22Z</time>
      </trkpt>
      <trkpt lat="46.94526" lon="-0.87978">
        <ele>197.902</ele>
        <time>2021-11-24T10:16:28Z</time>
      </trkpt>
      <trkpt lat="46.94531" lon="-0.87978">
        <ele>198.378</ele>
        <time>2021-11-24T10:16:33Z</time>
      </trkpt>
      <trkpt lat="46.94535" lon="-0.87984">
        <ele>197.251</ele>
        <time>2021-11-24T10:16:39Z</time>
      </trkpt>
      <trkpt lat="46.94541" lon="-0.87988">
        <ele>197.336</ele>
        <time>2021-11-24T10:16:44Z</time>
      </trkpt>
      <trkpt lat="46.94544" lon="-0.87994">
        <ele>196.184</ele>
        <time>2021-11-24T10:16:49Z</time>
      </trkpt>
      <trkpt lat="46.94549" lon="-0.87997">
        <ele>195.592</ele>
        <time>2021-11-24T10:16:55Z</time>
      </trkpt>
      <trkpt lat="46.94555" lon="-0.88002">
        <ele>194.825</ele>
        <time>2021-11-24T10:17:01Z</time>
      </trkpt>
      <trkpt lat="46.94553" lon="-0.8801">
        <ele>194.192</ele>
        <time>2021-11-24T10:17:07Z</time>
      </trkpt>
      <trkpt lat="46.9455" lon="-0.88017">
        <ele>193.961</ele>
        <time>2021-11-24T10:17:13Z</time>
      </trkpt>
      <trkpt lat="46.94545" lon="-0.88022">
        <ele>193.173</ele>
        <time>2021-11-24T10:17:19Z</time>
      </trkpt>
      <trkpt lat="46.94539" lon="-0.88026">
        <ele>193.141</ele>
        <time>2021-11-24T10:17:25Z</time>
      </trkpt>
      <trkpt lat="46.94533" lon="-0.88033">
        <ele>192.482</ele>
        <time>2021-11-24T10:17:31Z</time>
      </trkpt>
      <trkpt lat="46.94524" lon="-0.88038">
        <ele>191.938</ele>
        <time>2021-11-24T10:17:37Z</time>
      </trkpt>
      <trkpt lat="46.94515" lon="-0.88038">
        <ele>191.609</ele>
        <time>2021-11-24T10:17:43Z</time>
      </trkpt>
      <trkpt lat="46.94509" lon="-0.88039">
        <ele>190.278</ele>
        <time>2021-11-24T10:17:48Z</time>
      </trkpt>
      <trkpt lat="46.94501" lon="-0.88042">
        <ele>189.428</ele>
        <time>2021-11-24T10:17:54Z</time>
      </trkpt>
      <trkpt lat="46.94494" lon="-0.8804">
        <ele>188.603</ele>
        <time>2021-11-24T10:18:00Z</time>
      </trkpt>
      <trkpt lat="46.9449" lon="-0.88041">
        <ele>187.436</ele>
        <time>2021-11-24T10:18:05Z</time>
      </trkpt>
      <trkpt lat="46.94482" lon="-0.88045">
        <ele>188.297</ele>
        <time>2021-11-24T10:18:11Z</time>
      </trkpt>
      <trkpt lat="46.94479" lon="-0.8805">
        <ele>186.614</ele>
        <time>2021-11-24T10:18:16Z</time>
      </trkpt>
      <trkpt lat="46.9448" lon="-0.88057">
        <ele>185.523</ele>
        <time>2021-11-24T10:18:22Z</time>
      </trkpt>
      <trkpt lat="46.94484" lon="-0.88061">
        <ele>185.159</ele>
        <time>2021-11-24T10:18:27Z</time>
      </trkpt>
      <trkpt lat="46.9449" lon="-0.88063">
        <ele>184.034</ele>
        <time>2021-11-24T10:18:33Z</time>
      </trkpt>
      <trkpt lat="46.94495" lon="-0.88065">
        <ele>182.677</ele>
        <time>2021-11-24T10:18:39Z</time>
      </trkpt>
      <trkpt lat="46.94499" lon="-0.88072">
        <ele>180.204</ele>
        <time>2021-11-24T10:18:45Z</time>
      </trkpt>
      <trkpt lat="46.94494" lon="-0.88075">
        <ele>180.745</ele>
        <time>2021-11-24T10:18:51Z</time>
      </trkpt>
      <trkpt lat="46.94486" lon="-0.88079">
        <ele>179.543</ele>
        <time>2021-11-24T10:18:57Z</time>
      </trkpt>
      <trkpt lat="46.9448" lon="-0.88077">
        <ele>179.728</ele>
        <time>2021-11-24T10:19:02Z</time>
      </trkpt>
      <trkpt lat="46.94476" lon="-0.88074">
        <ele>179.625</ele>
        <time>2021-11-24T10:19:07Z</time>
      </trkpt>
      <trkpt lat="46.94471" lon="-0.88066">
        <ele>180.276</ele>
        <time>2021-11-24T10:19:12Z</time>
      </trkpt>
      <trkpt lat="46.94466" lon="-0.88063">
        <ele>180.162</ele>
        <time>2021-11-24T10:19:17Z</time>
      </trkpt>
      <trkpt lat="46.94459" lon="-0.88064">
        <ele>179.832</ele>
        <time>2021-11-24T10:19:22Z</time>
      </trkpt>
      <trkpt lat="46.94453" lon="-0.88063">
        <ele>180.139</ele>
        <time>2021-11-24T10:19:28Z</time>
      </trkpt>
      <trkpt lat="46.94447" lon="-0.88058">
        <ele>180.608</ele>
        <time>2021-11-24T10:19:34Z</time>
      </trkpt>
      <trkpt lat="46.94444" lon="-0.8805">
        <ele>180.664</ele>
        <time>2021-11-24T10:19:39Z</time>
      </trkpt>
      <trkpt lat="46.94438" lon="-0.88044">
        <ele>180.46</ele>
        <time>2021-11-24T10:19:45Z</time>
      </trkpt>
      <trkpt lat="46.94436" lon="-0.88032">
        <ele>181.039</ele>
        <time>2021-11-24T10:19:50Z</time>
      </trkpt>
      <trkpt lat="46.94438" lon="-0.88021">
        <ele>181.384</ele>
        <time>2021-11-24T10:19:56Z</time>
      </trkpt>
      <trkpt lat="46.94438" lon="-0.88013">
        <ele>181.593</ele>
        <time>2021-11-24T10:20:01Z</time>
      </trkpt>
      <trkpt lat="46.94432" lon="-0.8801">
        <ele>181.73</ele>
        <time>2021-11-24T10:20:07Z</time>
      </trkpt>
      <trkpt lat="46.94427" lon="-0.88014">
        <ele>180.618</ele>
        <time>2021-11-24T10:20:13Z</time>
      </trkpt>
      <trkpt lat="46.94424" lon="-0.88017">
        <ele>179.57</ele>
        <time>2021-11-24T10:20:19Z</time>
      </trkpt>
      <trkpt lat="46.94424" lon="-0.88018">
        <ele>179.004</ele>
        <time>2021-11-24T10:20:24Z</time>
      </trkpt>
      <trkpt lat="46.94422" lon="-0.88017">
        <ele>178.291</ele>
        <time>2021-11-24T10:20:30Z</time>
      </trkpt>
      <trkpt lat="46.94417" lon="-0.88024">
        <ele>176.683</ele>
        <time>2021-11-24T10:20:36Z</time>
      </trkpt>
      <trkpt lat="46.94416" lon="-0.88028">
        <ele>176.21</ele>
        <time>2021-11-24T10:20:42Z</time>
      </trkpt>
      <trkpt lat="46.9441" lon="-0.88029">
        <ele>174.808</ele>
        <time>2021-11-24T10:20:48Z</time>
      </trkpt>
      <trkpt lat="46.94411" lon="-0.88033">
        <ele>174.053</ele>
        <time>2021-11-24T10:20:54Z</time>
      </trkpt>
      <trkpt lat="46.94402" lon="-0.88043">
        <ele>122.4</ele>
        <time>2021-11-24T10:20:59Z</time>
      </trkpt>
      <trkpt lat="46.94413" lon="-0.88061">
        <ele>121.1</ele>
        <time>2021-11-24T10:21:04Z</time>
      </trkpt>
      <trkpt lat="46.94426" lon="-0.88074">
        <ele>121</ele>
        <time>2021-11-24T10:21:26Z</time>
      </trkpt>
      <trkpt lat="46.94433" lon="-0.88078">
        <ele>171.053</ele>
        <time>2021-11-24T10:21:31Z</time>
      </trkpt>
      <trkpt lat="46.9444" lon="-0.88081">
        <ele>170.236</ele>
        <time>2021-11-24T10:21:37Z</time>
      </trkpt>
      <trkpt lat="46.94445" lon="-0.88086">
        <ele>171.272</ele>
        <time>2021-11-24T10:21:43Z</time>
      </trkpt>
      <trkpt lat="46.94444" lon="-0.88086">
        <ele>170.832</ele>
        <time>2021-11-24T10:21:48Z</time>
      </trkpt>
      <trkpt lat="46.94452" lon="-0.8809">
        <ele>170.495</ele>
        <time>2021-11-24T10:22:00Z</time>
      </trkpt>
      <trkpt lat="46.94461" lon="-0.88093">
        <ele>169.655</ele>
        <time>2021-11-24T10:22:05Z</time>
      </trkpt>
      <trkpt lat="46.94467" lon="-0.88095">
        <ele>121.7</ele>
        <time>2021-11-24T10:22:11Z</time>
      </trkpt>
      <trkpt lat="46.94477" lon="-0.88097">
        <ele>121.4</ele>
        <time>2021-11-24T10:22:21Z</time>
      </trkpt>
      <trkpt lat="46.94485" lon="-0.88099">
        <ele>120.7</ele>
        <time>2021-11-24T10:22:32Z</time>
      </trkpt>
      <trkpt lat="46.94495" lon="-0.88101">
        <ele>119.9</ele>
        <time>2021-11-24T10:22:37Z</time>
      </trkpt>
      <trkpt lat="46.9452" lon="-0.88101">
        <ele>118.4</ele>
        <time>2021-11-24T10:22:59Z</time>
      </trkpt>
      <trkpt lat="46.94525" lon="-0.88098">
        <ele>167.129</ele>
        <time>2021-11-24T10:23:04Z</time>
      </trkpt>
      <trkpt lat="46.9452" lon="-0.88104">
        <ele>167.157</ele>
        <time>2021-11-24T10:23:10Z</time>
      </trkpt>
      <trkpt lat="46.94512" lon="-0.8811">
        <ele>166.443</ele>
        <time>2021-11-24T10:23:16Z</time>
      </trkpt>
      <trkpt lat="46.94508" lon="-0.88118">
        <ele>166.993</ele>
        <time>2021-11-24T10:23:21Z</time>
      </trkpt>
      <trkpt lat="46.94502" lon="-0.88121">
        <ele>167.348</ele>
        <time>2021-11-24T10:23:27Z</time>
      </trkpt>
      <trkpt lat="46.94493" lon="-0.88133">
        <ele>167.349</ele>
        <time>2021-11-24T10:29:32Z</time>
      </trkpt>
      <trkpt lat="46.94488" lon="-0.88137">
        <ele>167.444</ele>
        <time>2021-11-24T10:29:38Z</time>
      </trkpt>
      <trkpt lat="46.94482" lon="-0.88138">
        <ele>167.538</ele>
        <time>2021-11-24T10:29:44Z</time>
      </trkpt>
      <trkpt lat="46.94479" lon="-0.88138">
        <ele>167.727</ele>
        <time>2021-11-24T10:29:50Z</time>
      </trkpt>
      <trkpt lat="46.94478" lon="-0.88142">
        <ele>168.511</ele>
        <time>2021-11-24T10:29:55Z</time>
      </trkpt>
      <trkpt lat="46.94478" lon="-0.88146">
        <ele>168.818</ele>
        <time>2021-11-24T10:30:01Z</time>
      </trkpt>
      <trkpt lat="46.94477" lon="-0.88149">
        <ele>168.076</ele>
        <time>2021-11-24T10:30:07Z</time>
      </trkpt>
      <trkpt lat="46.94475" lon="-0.88155">
        <ele>168.914</ele>
        <time>2021-11-24T10:30:12Z</time>
      </trkpt>
      <trkpt lat="46.94473" lon="-0.88162">
        <ele>169.104</ele>
        <time>2021-11-24T10:30:17Z</time>
      </trkpt>
      <trkpt lat="46.94466" lon="-0.88167">
        <ele>168.777</ele>
        <time>2021-11-24T10:30:23Z</time>
      </trkpt>
      <trkpt lat="46.94461" lon="-0.88171">
        <ele>167.591</ele>
        <time>2021-11-24T10:30:28Z</time>
      </trkpt>
      <trkpt lat="46.94455" lon="-0.88174">
        <ele>167.721</ele>
        <time>2021-11-24T10:30:33Z</time>
      </trkpt>
      <trkpt lat="46.94452" lon="-0.88178">
        <ele>168.437</ele>
        <time>2021-11-24T10:30:38Z</time>
      </trkpt>
      <trkpt lat="46.94448" lon="-0.88175">
        <ele>168.488</ele>
        <time>2021-11-24T10:30:44Z</time>
      </trkpt>
      <trkpt lat="46.94449" lon="-0.88174">
        <ele>168.838</ele>
        <time>2021-11-24T10:30:55Z</time>
      </trkpt>
      <trkpt lat="46.94449" lon="-0.88173">
        <ele>168.891</ele>
        <time>2021-11-24T10:31:01Z</time>
      </trkpt>
      <trkpt lat="46.94448" lon="-0.88173">
        <ele>169.161</ele>
        <time>2021-11-24T10:31:13Z</time>
      </trkpt>
      <trkpt lat="46.94448" lon="-0.88172">
        <ele>169.091</ele>
        <time>2021-11-24T10:31:19Z</time>
      </trkpt>
      <trkpt lat="46.94447" lon="-0.88172">
        <ele>168.838</ele>
        <time>2021-11-24T10:31:30Z</time>
      </trkpt>
      <trkpt lat="46.94444" lon="-0.88173">
        <ele>168.745</ele>
        <time>2021-11-24T10:31:41Z</time>
      </trkpt>
      <trkpt lat="46.94438" lon="-0.88175">
        <ele>168.54</ele>
        <time>2021-11-24T10:31:46Z</time>
      </trkpt>
      <trkpt lat="46.94431" lon="-0.88173">
        <ele>168.371</ele>
        <time>2021-11-24T10:31:52Z</time>
      </trkpt>
      <trkpt lat="46.94425" lon="-0.88171">
        <ele>168.498</ele>
        <time>2021-11-24T10:31:58Z</time>
      </trkpt>
      <trkpt lat="46.94419" lon="-0.88168">
        <ele>168.664</ele>
        <time>2021-11-24T10:32:03Z</time>
      </trkpt>
      <trkpt lat="46.94416" lon="-0.88164">
        <ele>169.054</ele>
        <time>2021-11-24T10:32:08Z</time>
      </trkpt>
      <trkpt lat="46.94412" lon="-0.88159">
        <ele>169.492</ele>
        <time>2021-11-24T10:32:14Z</time>
      </trkpt>
      <trkpt lat="46.94408" lon="-0.88151">
        <ele>169.491</ele>
        <time>2021-11-24T10:32:20Z</time>
      </trkpt>
      <trkpt lat="46.94402" lon="-0.88143">
        <ele>169.565</ele>
        <time>2021-11-24T10:32:26Z</time>
      </trkpt>
      <trkpt lat="46.94398" lon="-0.88136">
        <ele>169.589</ele>
        <time>2021-11-24T10:32:31Z</time>
      </trkpt>
      <trkpt lat="46.94394" lon="-0.88127">
        <ele>169.359</ele>
        <time>2021-11-24T10:32:36Z</time>
      </trkpt>
      <trkpt lat="46.94391" lon="-0.88117">
        <ele>168.378</ele>
        <time>2021-11-24T10:32:41Z</time>
      </trkpt>
      <trkpt lat="46.94394" lon="-0.88106">
        <ele>169.103</ele>
        <time>2021-11-24T10:32:47Z</time>
      </trkpt>
      <trkpt lat="46.94393" lon="-0.88098">
        <ele>169.607</ele>
        <time>2021-11-24T10:32:52Z</time>
      </trkpt>
      <trkpt lat="46.94391" lon="-0.88093">
        <ele>170.106</ele>
        <time>2021-11-24T10:32:58Z</time>
      </trkpt>
      <trkpt lat="46.94387" lon="-0.88085">
        <ele>170.878</ele>
        <time>2021-11-24T10:33:03Z</time>
      </trkpt>
      <trkpt lat="46.94386" lon="-0.88076">
        <ele>170.759</ele>
        <time>2021-11-24T10:33:08Z</time>
      </trkpt>
      <trkpt lat="46.94385" lon="-0.88066">
        <ele>170.731</ele>
        <time>2021-11-24T10:33:14Z</time>
      </trkpt>
      <trkpt lat="46.94383" lon="-0.88057">
        <ele>170.664</ele>
        <time>2021-11-24T10:33:20Z</time>
      </trkpt>
      <trkpt lat="46.94378" lon="-0.88052">
        <ele>170.075</ele>
        <time>2021-11-24T10:33:25Z</time>
      </trkpt>
      <trkpt lat="46.94371" lon="-0.88047">
        <ele>171.279</ele>
        <time>2021-11-24T10:33:30Z</time>
      </trkpt>
      <trkpt lat="46.94367" lon="-0.88035">
        <ele>170.224</ele>
        <time>2021-11-24T10:33:36Z</time>
      </trkpt>
      <trkpt lat="46.94364" lon="-0.88025">
        <ele>170.137</ele>
        <time>2021-11-24T10:33:42Z</time>
      </trkpt>
      <trkpt lat="46.94364" lon="-0.88016">
        <ele>169.881</ele>
        <time>2021-11-24T10:33:47Z</time>
      </trkpt>
      <trkpt lat="46.94362" lon="-0.88008">
        <ele>170.089</ele>
        <time>2021-11-24T10:33:53Z</time>
      </trkpt>
      <trkpt lat="46.94358" lon="-0.87996">
        <ele>170.73</ele>
        <time>2021-11-24T10:33:59Z</time>
      </trkpt>
      <trkpt lat="46.94357" lon="-0.87987">
        <ele>171.496</ele>
        <time>2021-11-24T10:34:05Z</time>
      </trkpt>
      <trkpt lat="46.94357" lon="-0.87982">
        <ele>122.4</ele>
        <time>2021-11-24T10:34:11Z</time>
      </trkpt>
      <trkpt lat="46.94352" lon="-0.87992">
        <ele>120.4</ele>
        <time>2021-11-24T10:34:17Z</time>
      </trkpt>
      <trkpt lat="46.94348" lon="-0.87999">
        <ele>119.2</ele>
        <time>2021-11-24T10:34:23Z</time>
      </trkpt>
      <trkpt lat="46.94343" lon="-0.88008">
        <ele>118.7</ele>
        <time>2021-11-24T10:34:28Z</time>
      </trkpt>
      <trkpt lat="46.94341" lon="-0.88025">
        <ele>118.7</ele>
        <time>2021-11-24T10:34:39Z</time>
      </trkpt>
      <trkpt lat="46.94342" lon="-0.88042">
        <ele>118.7</ele>
        <time>2021-11-24T10:34:44Z</time>
      </trkpt>
      <trkpt lat="46.94345" lon="-0.88052">
        <ele>118.6</ele>
        <time>2021-11-24T10:34:49Z</time>
      </trkpt>
      <trkpt lat="46.94348" lon="-0.88067">
        <ele>118.5</ele>
        <time>2021-11-24T10:34:59Z</time>
      </trkpt>
      <trkpt lat="46.94348" lon="-0.88075">
        <ele>118.5</ele>
        <time>2021-11-24T10:35:05Z</time>
      </trkpt>
      <trkpt lat="46.94346" lon="-0.8809">
        <ele>118.7</ele>
        <time>2021-11-24T10:35:17Z</time>
      </trkpt>
      <trkpt lat="46.94345" lon="-0.88096">
        <ele>118.9</ele>
        <time>2021-11-24T10:35:23Z</time>
      </trkpt>
      <trkpt lat="46.94341" lon="-0.88102">
        <ele>119.2</ele>
        <time>2021-11-24T10:35:29Z</time>
      </trkpt>
      <trkpt lat="46.94336" lon="-0.88109">
        <ele>119.7</ele>
        <time>2021-11-24T10:35:34Z</time>
      </trkpt>
      <trkpt lat="46.94331" lon="-0.88115">
        <ele>119.8</ele>
        <time>2021-11-24T10:35:51Z</time>
      </trkpt>
      <trkpt lat="46.94326" lon="-0.88124">
        <ele>119.6</ele>
        <time>2021-11-24T10:35:57Z</time>
      </trkpt>
      <trkpt lat="46.94324" lon="-0.88135">
        <ele>119.7</ele>
        <time>2021-11-24T10:36:02Z</time>
      </trkpt>
      <trkpt lat="46.94321" lon="-0.88147">
        <ele>121</ele>
        <time>2021-11-24T10:36:08Z</time>
      </trkpt>
      <trkpt lat="46.94323" lon="-0.88155">
        <ele>171.69</ele>
        <time>2021-11-24T10:36:13Z</time>
      </trkpt>
      <trkpt lat="46.94328" lon="-0.88163">
        <ele>121.7</ele>
        <time>2021-11-24T10:36:19Z</time>
      </trkpt>
      <trkpt lat="46.94342" lon="-0.88185">
        <ele>123.6</ele>
        <time>2021-11-24T10:36:36Z</time>
      </trkpt>
      <trkpt lat="46.94348" lon="-0.88196">
        <ele>124.6</ele>
        <time>2021-11-24T10:36:47Z</time>
      </trkpt>
      <trkpt lat="46.94346" lon="-0.88206">
        <ele>127</ele>
        <time>2021-11-24T10:36:52Z</time>
      </trkpt>
      <trkpt lat="46.94343" lon="-0.88214">
        <ele>129.4</ele>
        <time>2021-11-24T10:36:57Z</time>
      </trkpt>
      <trkpt lat="46.94352" lon="-0.88237">
        <ele>132.1</ele>
      </trkpt>
      <trkpt lat="46.94358" lon="-0.88255">
        <ele>134.5</ele>
        <time>2021-11-24T10:37:26Z</time>
      </trkpt>
      <trkpt lat="46.94368" lon="-0.8828">
        <ele>138.8</ele>
        <time>2021-11-24T10:37:43Z</time>
      </trkpt>
      <trkpt lat="46.9438" lon="-0.88303">
        <ele>142.3</ele>
        <time>2021-11-24T10:38:00Z</time>
      </trkpt>
      <trkpt lat="46.94384" lon="-0.88311">
        <ele>143.4</ele>
        <time>2021-11-24T10:38:05Z</time>
      </trkpt>
      <trkpt lat="46.94402" lon="-0.88322">
        <ele>143.3</ele>
        <time>2021-11-24T10:38:21Z</time>
      </trkpt>
      <trkpt lat="46.94421" lon="-0.8833">
        <ele>143.7</ele>
        <time>2021-11-24T10:38:37Z</time>
      </trkpt>
      <trkpt lat="46.94473" lon="-0.88352">
        <ele>143.8</ele>
        <time>2021-11-24T10:39:22Z</time>
      </trkpt>
      <trkpt lat="46.94485" lon="-0.88356">
        <ele>143.6</ele>
        <time>2021-11-24T10:39:33Z</time>
      </trkpt>
      <trkpt lat="46.94499" lon="-0.88349">
        <ele>140.9</ele>
        <time>2021-11-24T10:39:45Z</time>
      </trkpt>
      <trkpt lat="46.9451" lon="-0.8835">
        <ele>140.6</ele>
        <time>2021-11-24T10:39:56Z</time>
      </trkpt>
      <trkpt lat="46.9453" lon="-0.88347">
        <ele>139.5</ele>
        <time>2021-11-24T10:40:12Z</time>
      </trkpt>
      <trkpt lat="46.94542" lon="-0.88339">
        <ele>138.1</ele>
        <time>2021-11-24T10:40:23Z</time>
      </trkpt>
      <trkpt lat="46.94553" lon="-0.88335">
        <ele>137.2</ele>
        <time>2021-11-24T10:40:34Z</time>
      </trkpt>
      <trkpt lat="46.94564" lon="-0.88327">
        <ele>135.8</ele>
        <time>2021-11-24T10:40:40Z</time>
      </trkpt>
      <trkpt lat="46.94579" lon="-0.88304">
        <ele>131.6</ele>
        <time>2021-11-24T10:40:57Z</time>
      </trkpt>
      <trkpt lat="46.94594" lon="-0.88277">
        <ele>126.5</ele>
        <time>2021-11-24T10:41:15Z</time>
      </trkpt>
      <trkpt lat="46.94602" lon="-0.88257">
        <ele>123.3</ele>
      </trkpt>
      <trkpt lat="46.94606" lon="-0.88253">
        <ele>122.5</ele>
        <time>2021-11-24T10:41:32Z</time>
      </trkpt>
      <trkpt lat="46.94614" lon="-0.8825">
        <ele>121.8</ele>
      </trkpt>
      <trkpt lat="46.94619" lon="-0.88252">
        <ele>121.7</ele>
        <time>2021-11-24T10:41:48Z</time>
      </trkpt>
      <trkpt lat="46.9463" lon="-0.88265">
        <ele>122.8</ele>
        <time>2021-11-24T10:41:54Z</time>
      </trkpt>
      <trkpt lat="46.94653" lon="-0.88261">
        <ele>121.5</ele>
        <time>2021-11-24T10:42:12Z</time>
      </trkpt>
      <trkpt lat="46.94664" lon="-0.88257">
        <ele>121.1</ele>
        <time>2021-11-24T10:42:18Z</time>
      </trkpt>
      <trkpt lat="46.9467" lon="-0.88256">
        <ele>120.8</ele>
        <time>2021-11-24T10:42:23Z</time>
      </trkpt>
      <trkpt lat="46.94675" lon="-0.88255">
        <ele>173.818</ele>
        <time>2021-11-24T10:42:28Z</time>
      </trkpt>
      <trkpt lat="46.94682" lon="-0.88253">
        <ele>173.12</ele>
        <time>2021-11-24T10:42:33Z</time>
      </trkpt>
      <trkpt lat="46.9469" lon="-0.88251">
        <ele>173.649</ele>
        <time>2021-11-24T10:42:38Z</time>
      </trkpt>
      <trkpt lat="46.94699" lon="-0.88247">
        <ele>173.102</ele>
        <time>2021-11-24T10:42:44Z</time>
      </trkpt>
      <trkpt lat="46.94776" lon="-0.88226">
        <ele>120.4</ele>
        <time>2021-11-24T10:43:47Z</time>
      </trkpt>
      <trkpt lat="46.94785" lon="-0.88224">
        <ele>171.965</ele>
        <time>2021-11-24T10:43:53Z</time>
      </trkpt>
      <trkpt lat="46.94792" lon="-0.88225">
        <ele>172.345</ele>
        <time>2021-11-24T10:43:59Z</time>
      </trkpt>
      <trkpt lat="46.948" lon="-0.88224">
        <ele>172.852</ele>
        <time>2021-11-24T10:44:05Z</time>
      </trkpt>
      <trkpt lat="46.94806" lon="-0.88226">
        <ele>172.861</ele>
        <time>2021-11-24T10:44:10Z</time>
      </trkpt>
      <trkpt lat="46.94814" lon="-0.88229">
        <ele>172.682</ele>
        <time>2021-11-24T10:44:16Z</time>
      </trkpt>
      <trkpt lat="46.9482" lon="-0.88235">
        <ele>172.556</ele>
        <time>2021-11-24T10:44:21Z</time>
      </trkpt>
      <trkpt lat="46.94825" lon="-0.88243">
        <ele>172.022</ele>
        <time>2021-11-24T10:44:27Z</time>
      </trkpt>
      <trkpt lat="46.9483" lon="-0.88249">
        <ele>172.135</ele>
        <time>2021-11-24T10:44:32Z</time>
      </trkpt>
      <trkpt lat="46.94835" lon="-0.88254">
        <ele>171.812</ele>
        <time>2021-11-24T10:44:37Z</time>
      </trkpt>
      <trkpt lat="46.9484" lon="-0.88264">
        <ele>170.537</ele>
        <time>2021-11-24T10:44:43Z</time>
      </trkpt>
      <trkpt lat="46.94845" lon="-0.88272">
        <ele>169.801</ele>
        <time>2021-11-24T10:44:49Z</time>
      </trkpt>
      <trkpt lat="46.94849" lon="-0.88276">
        <ele>170.02</ele>
        <time>2021-11-24T10:44:54Z</time>
      </trkpt>
      <trkpt lat="46.94855" lon="-0.88282">
        <ele>118</ele>
        <time>2021-11-24T10:45:00Z</time>
      </trkpt>
      <trkpt lat="46.94862" lon="-0.88285">
        <ele>117.5</ele>
        <time>2021-11-24T10:45:06Z</time>
      </trkpt>
      <trkpt lat="46.94868" lon="-0.88287">
        <ele>117.3</ele>
        <time>2021-11-24T10:45:11Z</time>
      </trkpt>
      <trkpt lat="46.94893" lon="-0.88293">
        <ele>169.917</ele>
        <time>2021-11-24T10:45:27Z</time>
      </trkpt>
      <trkpt lat="46.94899" lon="-0.88298">
        <ele>170.246</ele>
        <time>2021-11-24T10:45:33Z</time>
      </trkpt>
      <trkpt lat="46.94904" lon="-0.88303">
        <ele>170.304</ele>
        <time>2021-11-24T10:45:38Z</time>
      </trkpt>
      <trkpt lat="46.94911" lon="-0.88303">
        <ele>170.913</ele>
        <time>2021-11-24T10:45:44Z</time>
      </trkpt>
      <trkpt lat="46.94914" lon="-0.88304">
        <ele>171.513</ele>
        <time>2021-11-24T10:45:49Z</time>
      </trkpt>
      <trkpt lat="46.94919" lon="-0.88307">
        <ele>171.899</ele>
        <time>2021-11-24T10:45:54Z</time>
      </trkpt>
      <trkpt lat="46.94923" lon="-0.88309">
        <ele>172.997</ele>
        <time>2021-11-24T10:45:59Z</time>
      </trkpt>
      <trkpt lat="46.94926" lon="-0.88311">
        <ele>175.308</ele>
        <time>2021-11-24T10:46:04Z</time>
      </trkpt>
      <trkpt lat="46.94925" lon="-0.88314">
        <ele>174.878</ele>
        <time>2021-11-24T10:46:10Z</time>
      </trkpt>
      <trkpt lat="46.94924" lon="-0.88316">
        <ele>175.276</ele>
        <time>2021-11-24T10:46:16Z</time>
      </trkpt>
      <trkpt lat="46.94923" lon="-0.88316">
        <ele>175.733</ele>
        <time>2021-11-24T10:46:21Z</time>
      </trkpt>
      <trkpt lat="46.94916" lon="-0.88317">
        <ele>176.024</ele>
        <time>2021-11-24T10:46:26Z</time>
      </trkpt>
      <trkpt lat="46.94908" lon="-0.88317">
        <ele>176.274</ele>
        <time>2021-11-24T10:46:31Z</time>
      </trkpt>
      <trkpt lat="46.94901" lon="-0.88317">
        <ele>176.644</ele>
        <time>2021-11-24T10:46:37Z</time>
      </trkpt>
      <trkpt lat="46.94898" lon="-0.8832">
        <ele>177.725</ele>
        <time>2021-11-24T10:46:42Z</time>
      </trkpt>
      <trkpt lat="46.94892" lon="-0.88323">
        <ele>179.116</ele>
        <time>2021-11-24T10:46:48Z</time>
      </trkpt>
      <trkpt lat="46.94888" lon="-0.88321">
        <ele>179.862</ele>
        <time>2021-11-24T10:46:54Z</time>
      </trkpt>
      <trkpt lat="46.94888" lon="-0.88316">
        <ele>178.053</ele>
        <time>2021-11-24T10:47:00Z</time>
      </trkpt>
      <trkpt lat="46.94885" lon="-0.88314">
        <ele>177.641</ele>
        <time>2021-11-24T10:47:05Z</time>
      </trkpt>
      <trkpt lat="46.9488" lon="-0.88311">
        <ele>177.486</ele>
        <time>2021-11-24T10:47:10Z</time>
      </trkpt>
      <trkpt lat="46.94876" lon="-0.88309">
        <ele>177.376</ele>
        <time>2021-11-24T10:47:16Z</time>
      </trkpt>
      <trkpt lat="46.94871" lon="-0.88313">
        <ele>177.066</ele>
        <time>2021-11-24T10:47:21Z</time>
      </trkpt>
      <trkpt lat="46.94866" lon="-0.88318">
        <ele>175.916</ele>
        <time>2021-11-24T10:47:27Z</time>
      </trkpt>
      <trkpt lat="46.94863" lon="-0.8832">
        <ele>177.711</ele>
        <time>2021-11-24T10:47:32Z</time>
      </trkpt>
      <trkpt lat="46.94863" lon="-0.88322">
        <ele>176.584</ele>
        <time>2021-11-24T10:47:38Z</time>
      </trkpt>
      <trkpt lat="46.94861" lon="-0.88325">
        <ele>176.883</ele>
        <time>2021-11-24T10:47:43Z</time>
      </trkpt>
      <trkpt lat="46.94855" lon="-0.88336">
        <ele>176.875</ele>
        <time>2021-11-24T10:47:49Z</time>
      </trkpt>
      <trkpt lat="46.94853" lon="-0.8834">
        <ele>179.42</ele>
        <time>2021-11-24T10:47:54Z</time>
      </trkpt>
      <trkpt lat="46.94851" lon="-0.88342">
        <ele>179.587</ele>
        <time>2021-11-24T10:47:59Z</time>
      </trkpt>
      <trkpt lat="46.94849" lon="-0.88352">
        <ele>179.682</ele>
        <time>2021-11-24T10:48:05Z</time>
      </trkpt>
      <trkpt lat="46.94847" lon="-0.88354">
        <ele>179.575</ele>
        <time>2021-11-24T10:48:11Z</time>
      </trkpt>
      <trkpt lat="46.94844" lon="-0.88358">
        <ele>179.906</ele>
        <time>2021-11-24T10:48:17Z</time>
      </trkpt>
      <trkpt lat="46.94843" lon="-0.88357">
        <ele>180.302</ele>
        <time>2021-11-24T10:48:22Z</time>
      </trkpt>
      <trkpt lat="46.94842" lon="-0.88361">
        <ele>180.642</ele>
        <time>2021-11-24T10:48:28Z</time>
      </trkpt>
      <trkpt lat="46.94841" lon="-0.88372">
        <ele>181.128</ele>
        <time>2021-11-24T10:48:33Z</time>
      </trkpt>
      <trkpt lat="46.94842" lon="-0.88379">
        <ele>181.963</ele>
        <time>2021-11-24T10:48:38Z</time>
      </trkpt>
      <trkpt lat="46.94845" lon="-0.8838">
        <ele>185.842</ele>
        <time>2021-11-24T10:48:44Z</time>
      </trkpt>
      <trkpt lat="46.94858" lon="-0.88393">
        <ele>135.5</ele>
      </trkpt>
      <trkpt lat="46.94876" lon="-0.88385">
        <ele>135.1</ele>
      </trkpt>
      <trkpt lat="46.94907" lon="-0.88383">
        <ele>190.678</ele>
        <time>2021-11-24T10:49:51Z</time>
      </trkpt>
      <trkpt lat="46.94912" lon="-0.88383">
        <ele>190.871</ele>
        <time>2021-11-24T10:49:56Z</time>
      </trkpt>
      <trkpt lat="46.94932" lon="-0.88393">
        <ele>191.158</ele>
        <time>2021-11-24T10:50:18Z</time>
      </trkpt>
      <trkpt lat="46.94937" lon="-0.88395">
        <ele>192.033</ele>
        <time>2021-11-24T10:50:23Z</time>
      </trkpt>
      <trkpt lat="46.94942" lon="-0.88398">
        <ele>191.805</ele>
        <time>2021-11-24T10:50:28Z</time>
      </trkpt>
      <trkpt lat="46.94946" lon="-0.88402">
        <ele>191.826</ele>
        <time>2021-11-24T10:50:34Z</time>
      </trkpt>
      <trkpt lat="46.94952" lon="-0.88407">
        <ele>192.439</ele>
        <time>2021-11-24T10:50:40Z</time>
      </trkpt>
      <trkpt lat="46.94983" lon="-0.88434">
        <ele>131.1</ele>
        <time>2021-11-24T10:51:19Z</time>
      </trkpt>
      <trkpt lat="46.94998" lon="-0.88462">
        <ele>189.315</ele>
        <time>2021-11-24T10:52:04Z</time>
      </trkpt>
      <trkpt lat="46.94998" lon="-0.88466">
        <ele>190.047</ele>
        <time>2021-11-24T10:52:10Z</time>
      </trkpt>
      <trkpt lat="46.95007" lon="-0.88496">
        <ele>192.49</ele>
        <time>2021-11-24T10:52:32Z</time>
      </trkpt>
      <trkpt lat="46.95011" lon="-0.88505">
        <ele>192.941</ele>
        <time>2021-11-24T10:52:38Z</time>
      </trkpt>
      <trkpt lat="46.95013" lon="-0.88511">
        <ele>193.519</ele>
        <time>2021-11-24T10:52:44Z</time>
      </trkpt>
      <trkpt lat="46.95014" lon="-0.88516">
        <ele>193.771</ele>
        <time>2021-11-24T10:52:49Z</time>
      </trkpt>
      <trkpt lat="46.95021" lon="-0.88534">
        <ele>194.33</ele>
        <time>2021-11-24T10:52:54Z</time>
      </trkpt>
      <trkpt lat="46.95029" lon="-0.88555">
        <ele>195.012</ele>
        <time>2021-11-24T10:53:00Z</time>
      </trkpt>
      <trkpt lat="46.95034" lon="-0.88566">
        <ele>195.596</ele>
        <time>2021-11-24T10:53:06Z</time>
      </trkpt>
      <trkpt lat="46.95035" lon="-0.88568">
        <ele>195.986</ele>
        <time>2021-11-24T10:53:12Z</time>
      </trkpt>
      <trkpt lat="46.95037" lon="-0.88572">
        <ele>196.013</ele>
        <time>2021-11-24T10:53:17Z</time>
      </trkpt>
      <trkpt lat="46.95043" lon="-0.88585">
        <ele>196.307</ele>
        <time>2021-11-24T10:53:23Z</time>
      </trkpt>
      <trkpt lat="46.95051" lon="-0.88595">
        <ele>196.171</ele>
        <time>2021-11-24T10:53:29Z</time>
      </trkpt>
      <trkpt lat="46.95053" lon="-0.88597">
        <ele>196.418</ele>
        <time>2021-11-24T10:53:35Z</time>
      </trkpt>
      <trkpt lat="46.9506" lon="-0.88607">
        <ele>195.873</ele>
        <time>2021-11-24T10:53:40Z</time>
      </trkpt>
      <trkpt lat="46.95064" lon="-0.88617">
        <ele>195.51</ele>
        <time>2021-11-24T10:53:45Z</time>
      </trkpt>
      <trkpt lat="46.95067" lon="-0.88627">
        <ele>195.266</ele>
        <time>2021-11-24T10:53:51Z</time>
      </trkpt>
      <trkpt lat="46.95071" lon="-0.88635">
        <ele>195.145</ele>
        <time>2021-11-24T10:53:56Z</time>
      </trkpt>
      <trkpt lat="46.95072" lon="-0.88636">
        <ele>194.913</ele>
        <time>2021-11-24T10:54:01Z</time>
      </trkpt>
      <trkpt lat="46.95074" lon="-0.88639">
        <ele>194.757</ele>
        <time>2021-11-24T10:54:06Z</time>
      </trkpt>
      <trkpt lat="46.95075" lon="-0.88641">
        <ele>194.536</ele>
        <time>2021-11-24T10:54:12Z</time>
      </trkpt>
      <trkpt lat="46.95077" lon="-0.88645">
        <ele>194.161</ele>
        <time>2021-11-24T10:54:18Z</time>
      </trkpt>
      <trkpt lat="46.95087" lon="-0.88657">
        <ele>193.925</ele>
        <time>2021-11-24T10:54:24Z</time>
      </trkpt>
      <trkpt lat="46.95097" lon="-0.88667">
        <ele>193.771</ele>
        <time>2021-11-24T10:54:29Z</time>
      </trkpt>
      <trkpt lat="46.95105" lon="-0.88678">
        <ele>193.181</ele>
        <time>2021-11-24T10:54:35Z</time>
      </trkpt>
      <trkpt lat="46.95111" lon="-0.88689">
        <ele>192.759</ele>
        <time>2021-11-24T10:54:41Z</time>
      </trkpt>
      <trkpt lat="46.95111" lon="-0.88698">
        <ele>140.3</ele>
        <time>2021-11-24T10:54:47Z</time>
      </trkpt>
      <trkpt lat="46.95111" lon="-0.88709">
        <ele>141.6</ele>
        <time>2021-11-24T10:54:53Z</time>
      </trkpt>
      <trkpt lat="46.9511" lon="-0.8874">
        <ele>144.6</ele>
        <time>2021-11-24T10:55:09Z</time>
      </trkpt>
      <trkpt lat="46.95111" lon="-0.88752">
        <ele>194.268</ele>
        <time>2021-11-24T10:55:15Z</time>
      </trkpt>
      <trkpt lat="46.95109" lon="-0.88759">
        <ele>145.2</ele>
        <time>2021-11-24T10:55:20Z</time>
      </trkpt>
      <trkpt lat="46.95107" lon="-0.88774">
        <ele>145.2</ele>
        <time>2021-11-24T10:55:25Z</time>
      </trkpt>
      <trkpt lat="46.9512" lon="-0.88795">
        <ele>144.3</ele>
      </trkpt>
      <trkpt lat="46.95118" lon="-0.88802">
        <ele>144.4</ele>
        <time>2021-11-24T10:55:53Z</time>
      </trkpt>
      <trkpt lat="46.95127" lon="-0.88807">
        <ele>195.604</ele>
        <time>2021-11-24T10:55:58Z</time>
      </trkpt>
      <trkpt lat="46.95132" lon="-0.88802">
        <ele>195.402</ele>
        <time>2021-11-24T10:56:04Z</time>
      </trkpt>
      <trkpt lat="46.95138" lon="-0.88796">
        <ele>195.9</ele>
        <time>2021-11-24T10:56:09Z</time>
      </trkpt>
      <trkpt lat="46.95143" lon="-0.88791">
        <ele>195.97</ele>
        <time>2021-11-24T10:56:14Z</time>
      </trkpt>
      <trkpt lat="46.95149" lon="-0.88786">
        <ele>196.854</ele>
        <time>2021-11-24T10:56:19Z</time>
      </trkpt>
      <trkpt lat="46.95155" lon="-0.8878">
        <ele>197.993</ele>
        <time>2021-11-24T10:56:25Z</time>
      </trkpt>
      <trkpt lat="46.95161" lon="-0.88776">
        <ele>198.315</ele>
        <time>2021-11-24T10:56:30Z</time>
      </trkpt>
      <trkpt lat="46.95167" lon="-0.88772">
        <ele>198.301</ele>
        <time>2021-11-24T10:56:35Z</time>
      </trkpt>
      <trkpt lat="46.95174" lon="-0.8877">
        <ele>197.435</ele>
        <time>2021-11-24T10:56:41Z</time>
      </trkpt>
      <trkpt lat="46.9518" lon="-0.88766">
        <ele>197.304</ele>
        <time>2021-11-24T10:56:46Z</time>
      </trkpt>
      <trkpt lat="46.95187" lon="-0.88764">
        <ele>197.565</ele>
        <time>2021-11-24T10:56:52Z</time>
      </trkpt>
      <trkpt lat="46.95195" lon="-0.88765">
        <ele>196.787</ele>
        <time>2021-11-24T10:56:58Z</time>
      </trkpt>
      <trkpt lat="46.95201" lon="-0.88768">
        <ele>196.575</ele>
        <time>2021-11-24T10:57:03Z</time>
      </trkpt>
      <trkpt lat="46.95207" lon="-0.88774">
        <ele>196.955</ele>
        <time>2021-11-24T10:57:08Z</time>
      </trkpt>
      <trkpt lat="46.95214" lon="-0.88782">
        <ele>197.551</ele>
        <time>2021-11-24T10:57:14Z</time>
      </trkpt>
      <trkpt lat="46.95219" lon="-0.88788">
        <ele>197.496</ele>
        <time>2021-11-24T10:57:19Z</time>
      </trkpt>
      <trkpt lat="46.95225" lon="-0.88795">
        <ele>197.428</ele>
        <time>2021-11-24T10:57:24Z</time>
      </trkpt>
      <trkpt lat="46.95229" lon="-0.88802">
        <ele>197.509</ele>
        <time>2021-11-24T10:57:29Z</time>
      </trkpt>
      <trkpt lat="46.95235" lon="-0.88809">
        <ele>197.304</ele>
        <time>2021-11-24T10:57:35Z</time>
      </trkpt>
      <trkpt lat="46.95239" lon="-0.88814">
        <ele>197.044</ele>
        <time>2021-11-24T10:57:40Z</time>
      </trkpt>
      <trkpt lat="46.95245" lon="-0.88822">
        <ele>196.13</ele>
        <time>2021-11-24T10:57:46Z</time>
      </trkpt>
      <trkpt lat="46.9525" lon="-0.88828">
        <ele>196.21</ele>
        <time>2021-11-24T10:57:52Z</time>
      </trkpt>
      <trkpt lat="46.95252" lon="-0.88835">
        <ele>194.689</ele>
        <time>2021-11-24T10:57:58Z</time>
      </trkpt>
      <trkpt lat="46.95253" lon="-0.88844">
        <ele>194.598</ele>
        <time>2021-11-24T10:58:03Z</time>
      </trkpt>
      <trkpt lat="46.95252" lon="-0.88852">
        <ele>194.177</ele>
        <time>2021-11-24T10:58:08Z</time>
      </trkpt>
      <trkpt lat="46.95248" lon="-0.88861">
        <ele>194.15</ele>
        <time>2021-11-24T10:58:14Z</time>
      </trkpt>
      <trkpt lat="46.95244" lon="-0.88868">
        <ele>194.16</ele>
        <time>2021-11-24T10:58:20Z</time>
      </trkpt>
      <trkpt lat="46.95243" lon="-0.88871">
        <ele>194.796</ele>
        <time>2021-11-24T10:58:26Z</time>
      </trkpt>
    </trkseg>
  </trk>
</gpx>